Data for 07/15/2010

Time Sea-Level Adjusted Pressure Absolute Pressure Temperature Relative Humidity Dew Point Precipitation   
(mb) (inHg) (mb) (inHg) (C) (F) (%) (C) (F) (mm) (in)
00:01 1024 30.24 853 25.19 9.5 49.1 78 5.9 42.5 9.74 0.383
00:02 1024 30.24 853 25.19 9.7 49.4 77 5.8 42.5 9.86 0.388
00:03 1024 30.24 853 25.19 9.8 49.6 76 5.9 42.6 10 0.394
00:04 1024 30.24 853 25.19 9.8 49.6 77 5.9 42.6 10.01 0.394
00:05 1024 30.24 853 25.19 9.7 49.4 77 5.9 42.7 9.92 0.391
00:06 1024 30.24 853 25.19 9.6 49.3 78 6 42.8 9.93 0.391
00:07 1024 30.24 853 25.19 9.7 49.5 77 6 42.7 9.98 0.393
00:08 1024 30.24 853 25.19 9.8 49.6 77 6 42.7 10.06 0.396
00:09 1024 30.24 853 25.19 9.7 49.5 77 5.9 42.7 10.03 0.395
00:10 1024 30.24 853 25.19 9.8 49.6 77 6 42.8 10.03 0.395
00:11 1024 30.24 853 25.19 9.9 49.7 77 6 42.8 10.12 0.398
00:12 1024 30.24 853 25.19 9.9 49.8 77 6 42.8 10.12 0.398
00:13 1024 30.24 853 25.19 9.9 49.8 77 6 42.8 10.19 0.401
00:14 1024 30.24 853 25.19 10 49.9 77 6.1 42.9 10.23 0.403
00:15 1024 30.24 853 25.19 10 50 77 6.1 43 10.27 0.404
00:16 1024 30.24 853 25.19 9.9 49.9 77 6.1 43 10.25 0.404
00:17 1024 30.24 853 25.19 9.8 49.7 78 6.2 43.1 10.15 0.4
00:18 1024 30.24 853 25.19 9.7 49.5 78 6.1 43 10.07 0.396
00:19 1024 30.24 853 25.19 9.7 49.4 78 6.1 42.9 10.03 0.395
00:20 1024 30.24 853 25.19 9.7 49.4 78 6.1 43 10.02 0.394
00:21 1024 30.24 853 25.19 9.6 49.2 79 6.1 42.9 9.9 0.39
00:22 1024 30.24 853 25.19 9.5 49.1 79 6 42.9 9.84 0.387
00:23 1024 30.24 853 25.19 9.5 49 79 6 42.8 9.8 0.386
00:24 1024 30.24 853 25.19 9.4 48.8 79 6 42.7 9.71 0.382
00:25 1024 30.24 853 25.19 9.2 48.6 80 6 42.8 9.58 0.377
00:26 1024 30.24 853 25.19 9.1 48.4 80 5.9 42.6 9.52 0.375
00:27 1024 30.24 853 25.19 9.1 48.3 81 5.9 42.7 9.43 0.371
00:28 1024 30.24 853 25.19 9 48.3 81 5.9 42.6 9.43 0.371
00:29 1024 30.24 853 25.19 9.1 48.3 80 5.9 42.6 9.42 0.371
00:30 1024 30.24 853 25.19 9.1 48.4 80 5.9 42.6 9.41 0.37
00:31 1024 30.24 853 25.19 9.1 48.4 80 5.9 42.6 9.43 0.371
00:32 1024 30.24 853 25.19 9.1 48.4 80 5.9 42.6 9.43 0.371
00:33 1024 30.24 853 25.19 9.2 48.5 80 5.9 42.6 9.46 0.372
00:34 1024 30.24 853 25.19 9.2 48.5 80 5.9 42.6 9.49 0.374
00:35 1024 30.24 853 25.19 9.3 48.7 79 5.9 42.6 9.57 0.377
00:36 1024 30.24 853 25.19 9.3 48.7 79 5.9 42.7 9.62 0.379
00:37 1024 30.24 853 25.19 9.3 48.7 79 5.9 42.6 9.61 0.378
00:38 1024 30.24 853 25.19 9.4 48.9 79 5.9 42.6 9.67 0.381
00:39 1024 30.24 853 25.19 9.4 49 78 5.9 42.6 9.76 0.384
00:40 1024 30.24 853 25.19 9.5 49.1 78 5.9 42.7 9.81 0.386
00:41 1024 30.24 853 25.19 9.5 49 79 6 42.8 9.79 0.385
00:42 1024 30.24 853 25.19 9.4 48.9 79 6 42.9 9.71 0.382
00:43 1024 30.24 853 25.19 9.5 49.1 79 6.1 42.9 9.8 0.386
00:44 1024 30.24 853 25.19 9.6 49.2 79 6.1 43 9.9 0.39
00:45 1024 30.24 853 25.19 9.5 49.2 79 6.1 43.1 9.89 0.389
00:46 1024 30.24 853 25.19 9.4 48.9 80 6.1 43 9.8 0.386
00:47 1024 30.24 853 25.19 9.3 48.7 81 6.1 43 9.61 0.378
00:48 1024 30.24 853 25.19 9.1 48.3 81 6.1 42.9 9.43 0.371
00:49 1024 30.24 853 25.19 9 48.1 82 6 42.9 9.37 0.369
00:50 1024 30.24 853 25.19 8.9 47.9 82 6 42.7 9.24 0.364
00:51 1024 30.24 853 25.19 8.7 47.7 83 6 42.8 9.12 0.359
00:52 1024 30.24 853 25.19 8.6 47.5 84 6 42.8 8.95 0.352
00:53 1024 30.24 853 25.19 8.5 47.2 84 5.9 42.7 8.85 0.348
00:54 1024 30.24 853 25.19 8.3 46.9 85 5.9 42.6 8.71 0.343
00:55 1024 30.24 853 25.19 8.2 46.7 85 5.9 42.6 8.59 0.338
00:56 1024 30.24 854 25.22 8.2 46.8 85 5.8 42.4 8.65 0.341
00:57 1024 30.24 854 25.22 8.4 47.2 84 5.8 42.4 8.8 0.346
00:58 1024 30.24 854 25.22 8.6 47.4 83 5.9 42.6 8.98 0.354
00:59 1024 30.24 854 25.22 8.8 47.9 81 5.8 42.5 9.26 0.365
01:00 1024 30.24 854 25.22 9.1 48.4 80 5.8 42.4 9.49 0.374
01:01 1024 30.24 854 25.22 9.4 48.8 78 5.8 42.4 9.71 0.382
01:02 1024 30.24 854 25.22 9.7 49.4 77 5.8 42.4 9.9 0.39
01:03 1024 30.24 854 25.22 9.9 49.8 76 5.8 42.5 10.1 0.398
01:04 1024 30.24 854 25.22 9.9 49.8 76 5.9 42.6 10.08 0.397
01:05 1024 30.24 854 25.22 9.7 49.5 77 5.9 42.7 9.97 0.393
01:06 1024 30.24 854 25.22 9.5 49.2 78 5.9 42.6 9.83 0.387
01:07 1024 30.24 854 25.22 9.4 48.9 78 5.8 42.4 9.74 0.383
01:08 1024 30.24 854 25.22 9.5 49 77 5.6 42.2 9.74 0.383
01:09 1024 30.24 854 25.22 9.6 49.3 76 5.6 42.2 9.82 0.387
01:10 1024 30.24 854 25.22 9.7 49.5 76 5.6 42.1 9.92 0.391
01:11 1024 30.24 854 25.22 9.7 49.5 75 5.6 42.1 9.97 0.393
01:12 1024 30.24 854 25.22 9.6 49.2 77 5.7 42.2 9.86 0.388
01:13 1024 30.24 854 25.22 9.5 49.2 77 5.7 42.2 9.81 0.386
01:14 1024 30.24 854 25.22 9.5 49.1 77 5.7 42.2 9.79 0.385
01:15 1024 30.24 854 25.22 9.4 48.9 78 5.7 42.2 9.67 0.381
01:16 1024 30.24 854 25.22 9.3 48.7 78 5.6 42.2 9.62 0.379
01:17 1024 30.24 854 25.22 9.2 48.5 79 5.7 42.3 9.55 0.376
01:18 1024 30.24 854 25.22 9.2 48.5 79 5.7 42.3 9.51 0.374
01:19 1024 30.24 854 25.22 9.2 48.5 79 5.7 42.2 9.44 0.372
01:20 1024 30.24 854 25.22 9 48.1 79 5.5 42 9.32 0.367
01:21 1024 30.24 854 25.22 8.8 47.9 80 5.6 42.1 9.16 0.361
01:22 1024 30.24 854 25.22 8.8 47.8 80 5.5 41.9 9.14 0.36
01:23 1024 30.24 854 25.22 8.7 47.7 80 5.5 42 9.05 0.356
01:24 1024 30.24 854 25.22 8.6 47.6 80 5.5 41.9 9 0.354
01:25 1024 30.24 854 25.22 8.5 47.4 81 5.5 41.9 8.86 0.349
01:26 1024 30.24 854 25.22 8.5 47.2 82 5.5 41.9 8.78 0.346
01:27 1024 30.24 854 25.22 8.5 47.3 80 5.3 41.6 8.8 0.346
01:28 1024 30.24 854 25.22 8.4 47.2 81 5.4 41.6 8.74 0.344
01:29 1024 30.24 854 25.22 8.4 47 82 5.5 41.9 8.7 0.343
01:30 1024 30.24 854 25.22 8.4 47 82 5.4 41.7 8.68 0.342
01:31 1024 30.24 854 25.22 8.3 47 82 5.4 41.8 8.67 0.341
01:32 1024 30.24 854 25.22 8.3 47 82 5.4 41.7 8.67 0.341
01:33 1024 30.24 854 25.22 8.5 47.3 81 5.4 41.7 8.83 0.348
01:34 1025 30.27 854 25.22 8.6 47.4 81 5.5 41.9 8.86 0.349
01:35 1025 30.27 854 25.22 8.6 47.5 81 5.5 41.9 8.96 0.353
01:36 1025 30.27 854 25.22 8.8 47.9 79 5.5 41.9 9.12 0.359
01:37 1025 30.27 854 25.22 9 48.2 79 5.5 41.9 9.3 0.366
01:38 1025 30.27 854 25.22 9 48.2 79 5.6 42 9.31 0.367
01:39 1025 30.27 854 25.22 9.1 48.3 78 5.5 42 9.36 0.369
01:40 1025 30.27 854 25.22 9 48.3 78 5.5 41.9 9.34 0.368
01:41 1025 30.27 854 25.22 9 48.1 79 5.5 41.9 9.29 0.366
01:42 1025 30.27 854 25.22 8.8 47.9 79 5.4 41.8 9.11 0.359
01:43 1025 30.27 854 25.22 8.6 47.6 80 5.4 41.7 8.98 0.354
01:44 1025 30.27 854 25.22 8.6 47.4 81 5.4 41.8 8.91 0.351
01:45 1025 30.27 854 25.22 8.5 47.2 81 5.3 41.6 8.83 0.348
01:46 1025 30.27 854 25.22 8.4 47.2 81 5.4 41.7 8.78 0.346
01:47 1025 30.27 854 25.22 8.4 47 81 5.4 41.7 8.68 0.342
01:48 1025 30.27 854 25.22 8.2 46.7 82 5.4 41.6 8.55 0.337
01:49 1025 30.27 854 25.22 8.2 46.7 82 5.3 41.6 8.52 0.335
01:50 1025 30.27 854 25.22 8.1 46.5 83 5.3 41.5 8.44 0.332
01:51 1025 30.27 854 25.22 8 46.3 83 5.2 41.4 8.33 0.328
01:52 1025 30.27 854 25.22 7.9 46.2 83 5.2 41.4 8.27 0.326
01:53 1025 30.27 854 25.22 7.8 46.1 84 5.2 41.4 8.19 0.322
01:54 1025 30.27 854 25.22 7.8 46.1 83 5.1 41.2 8.15 0.321
01:55 1025 30.27 854 25.22 7.8 46 83 5.1 41.3 8.1 0.319
01:56 1025 30.27 854 25.22 7.8 46 83 5 41.1 8.17 0.322
01:57 1025 30.27 854 25.22 7.8 46.1 83 5.1 41.1 8.14 0.32
01:58 1025 30.27 854 25.22 7.9 46.1 82 5.1 41.1 8.19 0.322
01:59 1025 30.27 854 25.22 7.9 46.2 82 5.1 41.1 8.21 0.323
02:00 1025 30.27 854 25.22 8 46.4 82 5.1 41.1 8.31 0.327
02:01 1025 30.27 854 25.22 8 46.4 82 5.1 41.2 8.29 0.326
02:02 1025 30.27 854 25.22 8 46.3 82 5.2 41.3 8.29 0.326
02:03 1025 30.27 854 25.22 7.9 46.2 83 5.1 41.3 8.24 0.324
02:04 1025 30.27 854 25.22 7.9 46.3 83 5.2 41.3 8.25 0.325
02:05 1025 30.27 854 25.22 7.9 46.1 83 5.1 41.2 8.18 0.322
02:06 1025 30.27 854 25.22 7.8 46 83 5.1 41.3 8.12 0.32
02:07 1025 30.27 854 25.22 7.7 45.9 84 5.1 41.2 8.05 0.317
02:08 1025 30.27 854 25.22 7.7 45.8 84 5.1 41.2 8.02 0.316
02:09 1025 30.27 854 25.22 7.7 45.8 84 5.1 41.1 8 0.315
02:10 1025 30.27 854 25.22 7.6 45.8 84 5.1 41.2 7.99 0.315
02:11 1025 30.27 854 25.22 7.6 45.7 84 5.1 41.2 7.96 0.313
02:12 1025 30.27 854 25.22 7.6 45.6 84 5.1 41.2 7.91 0.311
02:13 1025 30.27 854 25.22 7.5 45.6 84 5.1 41.1 7.9 0.311
02:14 1025 30.27 854 25.22 7.6 45.6 84 5.1 41.2 7.9 0.311
02:15 1025 30.27 854 25.22 7.6 45.6 84 5 41.1 7.92 0.312
02:16 1025 30.27 854 25.22 7.6 45.6 84 5 41.1 7.83 0.308
02:17 1025 30.27 854 25.22 7.5 45.5 84 5 41.1 7.8 0.307
02:18 1025 30.27 854 25.22 7.4 45.4 85 5.1 41.2 7.72 0.304
02:19 1025 30.27 854 25.22 7.4 45.4 85 5.1 41.2 7.78 0.306
02:20 1025 30.27 854 25.22 7.4 45.3 85 5.1 41.2 7.75 0.305
02:21 1025 30.27 854 25.22 7.4 45.4 86 5.2 41.3 7.76 0.306
02:22 1025 30.27 854 25.22 7.5 45.5 85 5.2 41.4 7.78 0.306
02:23 1025 30.27 854 25.22 7.5 45.5 85 5.2 41.3 7.81 0.307
02:24 1025 30.27 854 25.22 7.6 45.6 85 5.2 41.3 7.81 0.307
02:25 1025 30.27 854 25.22 7.5 45.6 85 5.1 41.2 7.81 0.307
02:26 1025 30.27 854 25.22 7.5 45.5 85 5.1 41.2 7.81 0.307
02:27 1025 30.27 854 25.22 7.5 45.5 85 5.1 41.2 7.77 0.306
02:28 1025 30.27 854 25.22 7.4 45.2 85 5 40.9 7.71 0.304
02:29 1025 30.27 854 25.22 7.2 45 86 5 40.9 7.51 0.296
02:30 1025 30.27 854 25.22 7.1 44.7 86 4.8 40.7 7.36 0.29
02:31 1025 30.27 854 25.22 6.9 44.5 86 4.8 40.7 7.29 0.287
02:32 1025 30.27 854 25.22 6.9 44.4 87 4.9 40.8 7.19 0.283
02:33 1025 30.27 854 25.22 6.9 44.5 87 4.9 40.9 7.23 0.285
02:34 1025 30.27 854 25.22 7 44.7 87 5 41 7.35 0.289
02:35 1025 30.27 854 25.22 7.1 44.9 86 4.9 40.9 7.47 0.294
02:36 1025 30.27 854 25.22 7.2 44.9 85 4.9 40.8 7.47 0.294
02:37 1025 30.27 854 25.22 7.1 44.8 85 4.8 40.7 7.42 0.292
02:38 1025 30.27 854 25.22 7.1 44.7 86 4.8 40.7 7.4 0.291
02:39 1025 30.27 854 25.22 7.1 44.8 86 4.9 40.8 7.44 0.293
02:40 1025 30.27 854 25.22 7.1 44.8 85 4.8 40.6 7.44 0.293
02:41 1025 30.27 854 25.22 7.1 44.7 86 4.9 40.8 7.4 0.291
02:42 1025 30.27 854 25.22 7.1 44.7 86 4.9 40.9 7.4 0.291
02:43 1025 30.27 854 25.22 7.1 44.8 85 4.8 40.7 7.44 0.293
02:44 1025 30.27 854 25.22 7.1 44.7 86 4.9 40.8 7.39 0.291
02:45 1025 30.27 854 25.22 7 44.7 86 4.9 40.9 7.42 0.292
02:46 1025 30.27 854 25.22 7.1 44.8 86 5 41 7.47 0.294
02:47 1025 30.27 854 25.22 7.3 45.1 85 4.9 40.9 7.55 0.297
02:48 1025 30.27 854 25.22 7.3 45.2 85 5 41 7.65 0.301
02:49 1025 30.27 854 25.22 7.4 45.2 85 5 40.9 7.67 0.302
02:50 1025 30.27 854 25.22 7.4 45.3 85 5 41 7.71 0.304
02:51 1025 30.27 854 25.22 7.5 45.5 84 5 41.1 7.82 0.308
02:52 1025 30.27 854 25.22 7.8 46 83 5.1 41.2 8.02 0.316
02:53 1025 30.27 854 25.22 7.9 46.3 82 5.1 41.1 8.2 0.323
02:54 1025 30.27 854 25.22 8 46.3 82 5 41.1 8.23 0.324
02:55 1025 30.27 854 25.22 7.9 46.2 82 5.1 41.2 8.18 0.322
02:56 1025 30.27 854 25.22 7.8 46 83 5.1 41.2 8.08 0.318
02:57 1025 30.27 854 25.22 7.7 45.9 84 5.2 41.3 8.04 0.317
02:58 1025 30.27 854 25.22 7.7 45.8 84 5.1 41.2 7.97 0.314
02:59 1025 30.27 854 25.22 7.6 45.7 84 5.1 41.2 7.9 0.311
03:00 1025 30.27 854 25.22 7.5 45.5 84 5 41.1 7.86 0.309
03:01 1025 30.27 854 25.22 7.5 45.5 84 5 41.1 7.83 0.308
03:02 1025 30.27 854 25.22 7.5 45.5 84 5 41.1 7.78 0.306
03:03 1025 30.27 854 25.22 7.4 45.4 85 5 41 7.84 0.309
03:04 1025 30.27 854 25.22 7.5 45.5 85 5.1 41.2 7.87 0.31
03:05 1025 30.27 854 25.22 7.6 45.7 84 5.1 41.1 7.99 0.315
03:06 1025 30.27 854 25.22 7.8 46.1 83 5 41.1 8.08 0.318
03:07 1025 30.27 854 25.22 7.9 46.3 82 5 41 8.14 0.32
03:08 1025 30.27 854 25.22 8 46.4 82 5 41.1 8.2 0.323
03:09 1025 30.27 854 25.22 8 46.4 82 5 41.1 8.23 0.324
03:10 1025 30.27 854 25.22 8 46.5 81 5.1 41.1 8.28 0.326
03:11 1025 30.27 854 25.22 8.1 46.5 82 5.1 41.2 8.3 0.327
03:12 1025 30.27 854 25.22 8 46.4 83 5.2 41.4 8.29 0.326
03:13 1025 30.27 854 25.22 8.1 46.5 82 5.2 41.4 8.34 0.328
03:14 1025 30.27 854 25.22 8 46.5 82 5.2 41.4 8.36 0.329
03:15 1025 30.27 854 25.22 8 46.4 83 5.3 41.5 8.3 0.327
03:16 1025 30.27 854 25.22 8 46.4 83 5.3 41.5 8.33 0.328
03:17 1025 30.27 854 25.22 8 46.4 83 5.3 41.6 8.34 0.328
03:18 1025 30.27 854 25.22 8.1 46.5 82 5.3 41.5 8.37 0.33
03:19 1025 30.27 854 25.22 8 46.5 82 5.2 41.4 8.34 0.328
03:20 1025 30.27 854 25.22 7.9 46.2 83 5.3 41.5 8.26 0.325
03:21 1025 30.27 854 25.22 7.8 46.1 84 5.3 41.5 8.12 0.32
03:22 1025 30.27 854 25.22 7.8 46 84 5.3 41.6 8.15 0.321
03:23 1025 30.27 854 25.22 7.8 46 84 5.3 41.6 8.11 0.319
03:24 1025 30.27 854 25.22 7.8 46.1 85 5.4 41.7 8.15 0.321
03:25 1025 30.27 854 25.22 7.9 46.2 84 5.4 41.6 8.24 0.324
03:26 1025 30.27 854 25.22 8 46.5 83 5.4 41.7 8.33 0.328
03:27 1025 30.27 854 25.22 8.1 46.6 83 5.3 41.6 8.47 0.333
03:28 1025 30.27 854 25.22 8.2 46.8 82 5.4 41.7 8.47 0.333
03:29 1025 30.27 854 25.22 8.2 46.8 82 5.3 41.6 8.54 0.336
03:30 1025 30.27 854 25.22 8.2 46.8 82 5.3 41.5 8.54 0.336
03:31 1025 30.27 854 25.22 8.3 46.9 82 5.4 41.6 8.56 0.337
03:32 1025 30.27 854 25.22 8.3 46.9 82 5.3 41.6 8.6 0.339
03:33 1025 30.27 854 25.22 8.4 47.1 81 5.4 41.6 8.7 0.343
03:34 1025 30.27 854 25.22 8.4 47.2 81 5.4 41.7 8.72 0.343
03:35 1025 30.27 854 25.22 8.4 47.1 81 5.4 41.7 8.71 0.343
03:36 1025 30.27 854 25.22 8.4 47.1 81 5.4 41.6 8.76 0.345
03:37 1025 30.27 854 25.22 8.4 47.1 81 5.4 41.7 8.74 0.344
03:38 1025 30.27 854 25.22 8.3 46.9 82 5.4 41.6 8.64 0.34
03:39 1025 30.27 854 25.22 8.1 46.6 82 5.3 41.5 8.52 0.335
03:40 1025 30.27 854 25.22 8 46.3 83 5.2 41.4 8.36 0.329
03:41 1025 30.27 854 25.22 7.9 46.1 83 5.2 41.3 8.25 0.325
03:42 1025 30.27 854 25.22 7.7 45.9 84 5.2 41.3 8.08 0.318
03:43 1025 30.27 854 25.22 7.6 45.6 85 5.2 41.3 7.92 0.312
03:44 1025 30.27 854 25.22 7.6 45.6 84 5 41 7.98 0.314
03:45 1025 30.27 854 25.22 7.7 45.9 83 5 41 8.16 0.321
03:46 1025 30.27 854 25.22 8 46.4 81 5 40.9 8.43 0.332
03:47 1025 30.27 854 25.22 8.2 46.7 81 5.1 41.1 8.53 0.336
03:48 1025 30.27 854 25.22 8.2 46.8 80 5 41.1 8.63 0.34
03:49 1025 30.27 854 25.22 8.3 47 81 5.2 41.3 8.62 0.339
03:50 1025 30.27 854 25.22 8.3 46.9 81 5.2 41.4 8.61 0.339
03:51 1025 30.27 854 25.22 8.3 46.9 81 5.2 41.4 8.61 0.339
03:52 1025 30.27 854 25.22 8.3 46.9 81 5.2 41.3 8.69 0.342
03:53 1025 30.27 854 25.22 8.4 47.1 80 5.1 41.2 8.83 0.348
03:54 1025 30.27 854 25.22 8.6 47.4 78 5 41.1 8.97 0.353
03:55 1025 30.27 854 25.22 8.8 47.8 77 5 41.1 9.06 0.357
03:56 1025 30.27 854 25.22 8.8 47.8 77 5 41 9.14 0.36
03:57 1025 30.27 854 25.22 8.8 47.9 77 5 41.1 9.1 0.358
03:58 1025 30.27 854 25.22 8.9 48 77 5 41.1 9.11 0.359
03:59 1025 30.27 854 25.22 8.8 47.8 77 5 41 9.08 0.357
04:00 1025 30.27 854 25.22 8.7 47.7 78 5 41.1 9 0.354
04:01 1025 30.27 854 25.22 8.7 47.6 78 5 41 8.95 0.352
04:02 1025 30.27 854 25.22 8.6 47.5 78 5 41 8.87 0.349
04:03 1025 30.27 854 25.22 8.6 47.4 78 5 41 8.87 0.349
04:04 1025 30.27 854 25.22 8.6 47.4 78 5 41 8.89 0.35
04:05 1025 30.27 854 25.22 8.6 47.5 78 5 41 8.89 0.35
04:06 1025 30.27 854 25.22 8.7 47.6 77 4.9 40.9 8.97 0.353
04:07 1025 30.27 854 25.22 8.8 47.9 76 4.9 40.8 9.03 0.356
04:08 1025 30.27 854 25.22 9 48.1 75 4.9 40.8 9.14 0.36
04:09 1025 30.27 854 25.22 9 48.2 75 4.9 40.7 9.19 0.362
04:10 1025 30.27 854 25.22 9 48.1 75 4.9 40.8 9.11 0.359
04:11 1025 30.27 854 25.22 8.8 47.9 76 4.9 40.8 9.05 0.356
04:12 1025 30.27 854 25.22 8.6 47.5 77 4.9 40.8 8.88 0.35
04:13 1025 30.27 854 25.22 8.5 47.2 78 4.8 40.7 8.73 0.344
04:14 1025 30.27 854 25.22 8.3 46.9 79 4.8 40.6 8.62 0.339
04:15 1025 30.27 854 25.22 8.1 46.5 79 4.7 40.5 8.42 0.331
04:16 1025 30.27 854 25.22 7.8 46.1 81 4.8 40.6 8.25 0.325
04:17 1025 30.27 854 25.22 7.7 45.8 81 4.7 40.4 8.15 0.321
04:18 1025 30.27 854 25.22 7.6 45.7 81 4.6 40.3 8 0.315
04:19 1025 30.27 854 25.22 7.5 45.5 81 4.5 40.2 7.9 0.311
04:20 1025 30.27 854 25.22 7.4 45.2 81 4.4 39.9 7.78 0.306
04:21 1025 30.27 854 25.22 7.1 44.8 83 4.4 39.9 7.56 0.298
04:22 1025 30.27 854 25.22 7 44.5 84 4.4 39.9 7.42 0.292
04:23 1025 30.27 854 25.22 6.9 44.4 84 4.4 39.9 7.35 0.289
04:24 1025 30.27 854 25.22 6.8 44.2 85 4.5 40.1 7.27 0.286
04:25 1025 30.27 854 25.22 6.9 44.4 84 4.4 40 7.29 0.287
04:26 1025 30.27 854 25.22 7.1 44.8 83 4.5 40 7.41 0.292
04:27 1025 30.27 854 25.22 7.4 45.3 82 4.5 40 7.64 0.301
04:28 1025 30.27 854 25.22 7.6 45.7 80 4.5 40 7.86 0.309
04:29 1025 30.27 854 25.22 7.7 45.8 80 4.5 40.1 7.9 0.311
04:30 1025 30.27 854 25.22 7.7 45.9 79 4.4 39.9 7.95 0.313
04:31 1025 30.27 854 25.22 7.7 45.8 79 4.3 39.8 7.91 0.311
04:32 1025 30.27 854 25.22 7.7 45.8 80 4.4 40 7.93 0.312
04:33 1025 30.27 854 25.22 7.8 46.1 79 4.5 40.1 8.03 0.316
04:34 1025 30.27 854 25.22 8 46.4 78 4.4 39.9 8.12 0.32
04:35 1025 30.27 854 25.22 8 46.4 77 4.3 39.8 8.19 0.322
04:36 1025 30.27 854 25.22 8 46.3 78 4.3 39.8 8.17 0.322
04:37 1025 30.27 854 25.22 7.9 46.2 79 4.4 40 8.14 0.32
04:38 1025 30.27 854 25.22 8.1 46.6 77 4.4 39.8 8.31 0.327
04:39 1025 30.27 854 25.22 8.2 46.8 76 4.3 39.7 8.38 0.33
04:40 1025 30.27 855 25.25 8.1 46.6 77 4.3 39.7 8.28 0.326
04:41 1025 30.27 855 25.25 7.9 46.3 78 4.3 39.7 8.25 0.325
04:42 1025 30.27 855 25.25 7.8 46.1 78 4.2 39.6 8.16 0.321
04:43 1025 30.27 855 25.25 7.8 46 78 4.3 39.7 8.16 0.321
04:44 1025 30.27 855 25.25 7.7 45.9 79 4.4 39.9 8.08 0.318
04:45 1025 30.27 854 25.22 7.7 45.9 79 4.4 39.9 8.06 0.317
04:46 1025 30.27 855 25.25 7.7 45.9 78 4.2 39.6 8.09 0.319
04:47 1025 30.27 854 25.22 7.6 45.7 78 4.1 39.4 7.92 0.312
04:48 1025 30.27 854 25.22 7.3 45.1 81 4.3 39.7 7.67 0.302
04:49 1025 30.27 854 25.22 7.1 44.8 82 4.2 39.6 7.53 0.296
04:50 1025 30.27 854 25.22 6.9 44.5 82 4.1 39.4 7.32 0.288
04:51 1025 30.27 854 25.22 6.7 44 83 3.9 39.1 7.14 0.281
04:52 1025 30.27 854 25.22 6.6 43.8 83 3.9 39.1 7.01 0.276
04:53 1025 30.27 855 25.25 6.3 43.4 84 3.9 39 6.783 0.267
04:54 1025 30.27 855 25.25 6.2 43.1 86 4 39.2 6.625 0.261
04:55 1025 30.27 854 25.22 6.2 43.1 87 4.2 39.5 6.631 0.261
04:56 1025 30.27 855 25.25 6.2 43.2 86 4.1 39.4 6.648 0.262
04:57 1025 30.27 855 25.25 6.3 43.4 86 4.1 39.5 6.716 0.264
04:58 1025 30.27 855 25.25 6.4 43.6 85 4.2 39.5 6.744 0.266
04:59 1025 30.27 855 25.25 6.5 43.8 85 4.1 39.4 6.864 0.27
05:00 1025 30.27 855 25.25 6.5 43.8 84 4.1 39.3 6.824 0.269
05:01 1025 30.27 855 25.25 6.5 43.8 84 4.1 39.3 6.813 0.268
05:02 1025 30.27 855 25.25 6.5 43.7 84 4 39.2 6.802 0.268
05:03 1025 30.27 855 25.25 6.5 43.7 84 4 39.3 6.779 0.267
05:04 1025 30.27 855 25.25 6.4 43.5 85 4.1 39.3 6.66 0.262
05:05 1025 30.27 855 25.25 6.3 43.4 86 4.1 39.4 6.638 0.261
05:06 1025 30.27 855 25.25 6.4 43.6 85 4.1 39.4 6.712 0.264
05:07 1025 30.27 855 25.25 6.5 43.7 85 4.1 39.4 6.802 0.268
05:08 1025 30.27 855 25.25 6.6 43.9 84 4.1 39.5 6.893 0.271
05:09 1025 30.27 855 25.25 6.8 44.2 84 4.2 39.5 7.02 0.276
05:10 1025 30.27 855 25.25 6.9 44.4 82 4.1 39.4 7.14 0.281
05:11 1026 30.3 855 25.25 7 44.6 81 3.9 39.1 7.2 0.283
05:12 1026 30.3 855 25.25 6.9 44.4 81 3.9 39.1 7.16 0.282
05:13 1025 30.27 855 25.25 6.8 44.3 82 4 39.2 7.14 0.281
05:14 1025 30.27 855 25.25 6.8 44.3 82 4 39.2 7.11 0.28
05:15 1025 30.27 855 25.25 6.8 44.3 82 4 39.2 7.15 0.281
05:16 1025 30.27 855 25.25 6.8 44.3 82 4 39.1 7.11 0.28
05:17 1026 30.3 855 25.25 6.8 44.2 81 3.8 38.9 7.02 0.276
05:18 1026 30.3 855 25.25 6.8 44.2 82 3.9 38.9 7.01 0.276
05:19 1026 30.3 855 25.25 6.7 44.1 83 4 39.1 6.956 0.274
05:20 1026 30.3 855 25.25 6.7 44 83 3.9 39.1 6.99 0.275
05:21 1026 30.3 855 25.25 6.6 43.9 83 3.9 39 6.967 0.274
05:22 1026 30.3 855 25.25 6.6 43.9 83 3.9 39 6.905 0.272
05:23 1026 30.3 855 25.25 6.5 43.8 83 3.9 39 6.831 0.269
05:24 1026 30.3 855 25.25 6.5 43.7 83 3.9 39 6.826 0.269
05:25 1026 30.3 855 25.25 6.5 43.6 83 3.9 38.9 6.786 0.267
05:26 1026 30.3 855 25.25 6.4 43.6 84 3.9 39.1 6.718 0.264
05:27 1026 30.3 855 25.25 6.5 43.6 84 4 39.1 6.73 0.265
05:28 1026 30.3 855 25.25 6.5 43.7 84 4.1 39.4 6.798 0.268
05:29 1026 30.3 855 25.25 6.6 44 84 4.1 39.3 6.883 0.271
05:30 1026 30.3 855 25.25 6.7 44.1 83 4 39.3 6.962 0.274
05:31 1026 30.3 855 25.25 6.7 44 83 4.1 39.3 7.01 0.276
05:32 1026 30.3 855 25.25 6.7 44.1 83 4.1 39.4 7.02 0.276
05:33 1026 30.3 855 25.25 6.8 44.3 83 4.1 39.4 7.12 0.28
05:34 1026 30.3 855 25.25 6.8 44.3 83 4.1 39.4 7.14 0.281
05:35 1026 30.3 855 25.25 6.8 44.3 83 4.1 39.3 7.17 0.282
05:36 1026 30.3 855 25.25 6.8 44.3 83 4.1 39.4 7.14 0.281
05:37 1026 30.3 855 25.25 6.8 44.3 83 4.1 39.4 7.15 0.281
05:38 1026 30.3 855 25.25 6.9 44.4 83 4.2 39.5 7.2 0.283
05:39 1026 30.3 855 25.25 6.9 44.5 83 4.2 39.5 7.24 0.285
05:40 1026 30.3 855 25.25 7 44.6 82 4.2 39.5 7.31 0.288
05:41 1026 30.3 855 25.25 7.2 44.9 81 4.2 39.6 7.41 0.292
05:42 1026 30.3 855 25.25 7.3 45.2 81 4.3 39.7 7.59 0.299
05:43 1026 30.3 855 25.25 7.5 45.4 80 4.2 39.6 7.7 0.303
05:44 1026 30.3 855 25.25 7.6 45.6 79 4.2 39.6 7.83 0.308
05:45 1026 30.3 855 25.25 7.7 45.8 79 4.2 39.5 7.91 0.311
05:46 1026 30.3 855 25.25 7.8 46 78 4.2 39.5 7.99 0.315
05:47 1026 30.3 855 25.25 7.8 46.1 77 4.1 39.4 8.05 0.317
05:48 1026 30.3 855 25.25 7.9 46.1 77 4.1 39.4 8.16 0.321
05:49 1026 30.3 855 25.25 7.9 46.1 77 4.1 39.4 8.15 0.321
05:50 1026 30.3 855 25.25 7.8 46.1 77 4.1 39.3 8.11 0.319
05:51 1026 30.3 855 25.25 7.8 46 77 4.1 39.4 8.01 0.315
05:52 1026 30.3 855 25.25 7.6 45.7 78 4 39.1 7.93 0.312
05:53 1026 30.3 855 25.25 7.5 45.4 78 3.8 38.8 7.8 0.307
05:54 1026 30.3 855 25.25 7.1 44.8 79 3.8 38.8 7.49 0.295
05:55 1026 30.3 855 25.25 6.9 44.4 79 3.6 38.4 7.26 0.286
05:56 1026 30.3 855 25.25 6.6 43.9 81 3.6 38.4 6.985 0.275
05:57 1026 30.3 855 25.25 6.4 43.5 83 3.7 38.6 6.758 0.266
05:58 1026 30.3 855 25.25 6.3 43.3 84 3.8 38.8 6.696 0.264
05:59 1026 30.3 855 25.25 6.4 43.5 81 3.5 38.2 6.753 0.266
06:00 1026 30.3 855 25.25 6.3 43.4 83 3.6 38.6 6.696 0.264
06:01 1026 30.3 855 25.25 6.3 43.4 83 3.7 38.7 6.662 0.262
06:02 1026 30.3 855 25.25 6.5 43.6 83 3.9 38.9 6.758 0.266
06:03 1026 30.3 855 25.25 6.8 44.2 81 3.8 38.9 7.02 0.276
06:04 1026 30.3 855 25.25 7 44.6 81 4 39.1 7.21 0.284
06:05 1026 30.3 855 25.25 7.2 45 79 3.8 38.8 7.43 0.293
06:06 1026 30.3 855 25.25 7.2 45 78 3.6 38.5 7.47 0.294
06:07 1026 30.3 855 25.25 7.2 44.9 78 3.6 38.6 7.41 0.292
06:08 1026 30.3 855 25.25 7 44.5 79 3.6 38.5 7.24 0.285
06:09 1026 30.3 855 25.25 6.7 44.1 79 3.4 38.1 6.996 0.275
06:10 1026 30.3 855 25.25 6.3 43.4 81 3.2 37.8 6.662 0.262
06:11 1026 30.3 855 25.25 6 42.8 83 3.3 37.9 6.396 0.252
06:12 1026 30.3 855 25.25 5.8 42.4 83 3.1 37.6 6.17 0.243
06:13 1026 30.3 855 25.25 5.6 42.1 85 3.3 37.9 6.034 0.238
06:14 1026 30.3 855 25.25 5.6 42 88 3.8 38.8 5.972 0.235
06:15 1026 30.3 855 25.25 5.8 42.4 86 3.6 38.5 6.068 0.239
06:16 1026 30.3 855 25.25 5.9 42.5 86 3.7 38.6 6.215 0.245
06:17 1026 30.3 855 25.25 6 42.8 85 3.7 38.7 6.323 0.249
06:18 1026 30.3 855 25.25 6.1 42.9 85 3.7 38.7 6.402 0.252
06:19 1026 30.3 855 25.25 6.1 43 85 3.7 38.7 6.453 0.254
06:20 1026 30.3 855 25.25 6.1 42.9 85 3.7 38.7 6.436 0.253
06:21 1026 30.3 855 25.25 6.1 42.9 85 3.7 38.7 6.436 0.253
06:22 1026 30.3 855 25.25 6.1 43 85 3.7 38.7 6.498 0.256
06:23 1026 30.3 855 25.25 6.2 43.2 84 3.7 38.7 6.589 0.259
06:24 1026 30.3 855 25.25 6.4 43.6 83 3.8 38.8 6.741 0.265
06:25 1026 30.3 855 25.25 6.6 43.8 83 3.8 38.9 6.86 0.27
06:26 1026 30.3 855 25.25 6.6 43.9 83 3.9 39 6.956 0.274
06:27 1026 30.3 855 25.25 6.8 44.2 82 3.9 39 7.11 0.28
06:28 1026 30.3 855 25.25 7.1 44.8 80 3.9 38.9 7.36 0.29
06:29 1026 30.3 855 25.25 7.5 45.5 78 3.9 39 7.75 0.305
06:30 1026 30.3 855 25.25 7.9 46.2 76 3.9 38.9 8.08 0.318
06:31 1026 30.3 855 25.25 8.2 46.8 74 3.9 39 8.44 0.332
06:32 1026 30.3 855 25.25 8.5 47.3 73 3.9 39.1 8.75 0.344
06:33 1026 30.3 855 25.25 8.8 47.8 72 4.1 39.4 8.94 0.352
06:34 1026 30.3 855 25.25 8.8 47.9 73 4.3 39.7 9.07 0.357
06:35 1026 30.3 855 25.25 8.9 48 71 4 39.2 9.13 0.359
06:36 1026 30.3 855 25.25 9 48.2 73 4.4 39.8 9.18 0.361
06:37 1026 30.3 855 25.25 8.9 48.1 74 4.5 40.1 9.22 0.363
06:38 1026 30.3 855 25.25 8.7 47.7 75 4.6 40.2 9.06 0.357
06:39 1026 30.3 855 25.25 8.6 47.5 77 4.8 40.6 8.97 0.353
06:40 1026 30.3 855 25.25 8.6 47.4 78 4.9 40.8 8.88 0.35
06:41 1026 30.3 855 25.25 8.4 47.2 79 5 41 8.8 0.346
06:42 1026 30.3 855 25.25 8.4 47.1 79 4.9 40.8 8.74 0.344
06:43 1026 30.3 855 25.25 8.4 47.2 78 4.7 40.5 8.78 0.346
06:44 1026 30.3 855 25.25 8.6 47.5 76 4.7 40.5 8.9 0.35
06:45 1026 30.3 855 25.25 8.7 47.6 77 4.9 40.7 9.06 0.357
06:46 1026 30.3 855 25.25 8.8 47.8 78 5.1 41.2 9.12 0.359
06:47 1026 30.3 855 25.25 8.8 47.8 78 5.1 41.2 9.15 0.36
06:48 1026 30.3 855 25.25 8.9 48 77 5.2 41.3 9.25 0.364
06:49 1026 30.3 855 25.25 9 48.2 78 5.3 41.6 9.35 0.368
06:50 1026 30.3 855 25.25 9.1 48.4 78 5.4 41.8 9.43 0.371
06:51 1026 30.3 855 25.25 9.1 48.4 78 5.4 41.8 9.5 0.374
06:52 1026 30.3 855 25.25 9.1 48.3 78 5.4 41.8 9.5 0.374
06:53 1026 30.3 855 25.25 9.1 48.3 77 5.3 41.5 9.48 0.373
06:54 1026 30.3 855 25.25 9.2 48.5 77 5.3 41.6 9.54 0.376
06:55 1026 30.3 855 25.25 9.3 48.7 77 5.4 41.7 9.64 0.38
06:56 1026 30.3 855 25.25 9.4 48.9 76 5.5 41.8 9.77 0.385
06:57 1026 30.3 855 25.25 9.5 49.1 75 5.3 41.6 9.88 0.389
06:58 1026 30.3 855 25.25 9.7 49.4 75 5.4 41.8 10.05 0.396
06:59 1026 30.3 855 25.25 9.8 49.6 74 5.4 41.8 10.15 0.4
07:00 1026 30.3 855 25.25 9.9 49.8 73 5.3 41.5 10.24 0.403
07:01 1026 30.3 855 25.25 10 50 74 5.6 42.1 10.38 0.409
07:02 1026 30.3 855 25.25 10.1 50.2 74 5.8 42.5 10.44 0.411
07:03 1026 30.3 855 25.25 10.2 50.3 74 5.7 42.3 10.58 0.417
07:04 1026 30.3 855 25.25 10.3 50.5 75 6 42.8 10.66 0.42
07:05 1026 30.3 855 25.25 10.3 50.5 76 6.2 43.1 10.71 0.422
07:06 1026 30.3 855 25.25 10.3 50.6 76 6.3 43.4 10.67 0.42
07:07 1026 30.3 855 25.25 10.4 50.6 72 5.6 42.1 10.71 0.422
07:08 1026 30.3 855 25.25 10.5 50.8 72 5.7 42.3 10.74 0.423
07:09 1026 30.3 855 25.25 10.5 51 74 6.1 42.9 10.81 0.426
07:10 1026 30.3 855 25.25 10.6 51 73 6 42.9 10.86 0.428
07:11 1026 30.3 855 25.25 10.6 51.2 74 6.1 43 10.96 0.431
07:12 1026 30.3 855 25.25 10.7 51.2 75 6.5 43.7 11.03 0.434
07:13 1026 30.3 855 25.25 10.8 51.4 75 6.5 43.7 11.1 0.437
07:14 1026 30.3 855 25.25 10.8 51.4 76 6.7 44.1 11.19 0.441
07:15 1026 30.3 855 25.25 10.9 51.5 74 6.4 43.6 11.19 0.441
07:16 1026 30.3 855 25.25 10.9 51.5 73 6.3 43.3 11.23 0.442
07:17 1026 30.3 855 25.25 10.9 51.7 75 6.6 43.9 11.26 0.443
07:18 1026 30.3 855 25.25 11 51.7 74 6.6 43.9 11.32 0.446
07:19 1026 30.3 855 25.25 11 51.8 74 6.6 43.9 11.4 0.449
07:20 1026 30.3 855 25.25 11.1 52 75 6.9 44.4 11.5 0.453
07:21 1026 30.3 855 25.25 11.2 52.1 75 7 44.7 11.58 0.456
07:22 1026 30.3 855 25.25 11.3 52.3 74 6.8 44.2 11.72 0.461
07:23 1026 30.3 855 25.25 11.4 52.6 74 6.9 44.4 11.89 0.468
07:24 1026 30.3 855 25.25 11.6 52.9 71 6.5 43.8 12.03 0.474
07:25 1026 30.3 855 25.25 11.8 53.2 71 6.8 44.2 12.13 0.478
07:26 1026 30.3 855 25.25 11.8 53.3 69 6.4 43.6 12.32 0.485
07:27 1026 30.3 855 25.25 11.9 53.5 67 6.1 43 12.41 0.489
07:28 1026 30.3 855 25.25 12 53.5 67 6.2 43.1 12.42 0.489
07:29 1026 30.3 855 25.25 12 53.6 69 6.5 43.8 12.51 0.493
07:30 1026 30.3 855 25.25 12.1 53.8 68 6.5 43.7 12.61 0.496
07:31 1026 30.3 855 25.25 12.2 53.9 70 7 44.5 12.72 0.501
07:32 1026 30.3 855 25.25 12.3 54.1 70 7 44.5 12.86 0.506
07:33 1026 30.3 855 25.25 12.3 54.2 69 6.8 44.2 12.99 0.511
07:34 1026 30.3 855 25.25 12.4 54.4 67 6.5 43.8 13.07 0.515
07:35 1026 30.3 855 25.25 12.5 54.5 67 6.6 43.9 13.15 0.518
07:36 1026 30.3 855 25.25 12.5 54.5 65 6.2 43.2 13.2 0.52
07:37 1026 30.3 855 25.25 12.6 54.6 65 6.2 43.2 13.22 0.52
07:38 1026 30.3 855 25.25 12.6 54.6 66 6.3 43.4 13.26 0.522
07:39 1026 30.3 855 25.25 12.7 54.8 63 5.8 42.5 13.38 0.527
07:40 1026 30.3 855 25.25 12.7 54.9 62 5.8 42.4 13.47 0.53
07:41 1026 30.3 855 25.25 12.8 55 64 6.3 43.3 13.51 0.532
07:42 1026 30.3 855 25.25 12.9 55.1 64 6.3 43.3 13.6 0.535
07:43 1026 30.3 855 25.25 13 55.3 65 6.6 43.9 13.72 0.54
07:44 1026 30.3 855 25.25 13 55.4 62 5.9 42.6 13.81 0.544
07:45 1026 30.3 855 25.25 13.1 55.6 65 6.8 44.3 13.92 0.548
07:46 1026 30.3 855 25.25 13.2 55.7 66 6.9 44.4 14 0.551
07:47 1026 30.3 855 25.25 13.3 55.9 63 6.5 43.6 14.14 0.557
07:48 1026 30.3 855 25.25 13.4 56.1 62 6.3 43.3 14.2 0.559
07:49 1026 30.3 855 25.25 13.5 56.3 62 6.4 43.5 14.29 0.563
07:50 1026 30.3 855 25.25 13.6 56.4 64 6.9 44.4 14.37 0.566
07:51 1026 30.3 855 25.25 13.7 56.7 63 6.8 44.3 14.53 0.572
07:52 1026 30.3 855 25.25 13.8 56.9 63 6.9 44.5 14.65 0.577
07:53 1026 30.3 855 25.25 13.9 57 59 6.2 43.1 14.71 0.579
07:54 1026 30.3 855 25.25 14 57.2 59 6.1 43 14.8 0.583
07:55 1026 30.3 855 25.25 14.1 57.3 58 6 42.7 14.87 0.585
07:56 1026 30.3 855 25.25 14.1 57.5 61 6.9 44.4 14.93 0.588
07:57 1026 30.3 855 25.25 14.3 57.7 58 6.2 43.2 15.05 0.593
07:58 1026 30.3 855 25.25 14.3 57.7 59 6.5 43.7 15.09 0.594
07:59 1026 30.3 855 25.25 14.4 57.9 57 5.9 42.7 15.18 0.598
08:00 1026 30.3 855 25.25 14.4 58 58 6.4 43.5 15.24 0.6
08:01 1026 30.3 855 25.25 14.5 58.1 60 6.9 44.3 15.35 0.604
08:02 1026 30.3 855 25.25 14.6 58.2 58 6.4 43.5 15.41 0.607
08:03 1026 30.3 855 25.25 14.6 58.3 57 6.3 43.4 15.42 0.607
08:04 1026 30.3 855 25.25 14.6 58.3 61 7.2 44.9 15.51 0.611
08:05 1026 30.3 855 25.25 14.8 58.6 58 6.7 44.1 15.63 0.615
08:06 1026 30.3 855 25.25 14.8 58.7 57 6.5 43.7 15.63 0.615
08:07 1026 30.3 855 25.25 14.9 58.7 59 7 44.6 15.7 0.618
08:08 1026 30.3 855 25.25 14.9 58.8 60 7.2 45 15.76 0.62
08:09 1026 30.3 855 25.25 15 59 55 6.2 43.1 15.78 0.621
08:10 1026 30.3 855 25.25 15 59.1 62 7.8 46.1 15.86 0.624
08:11 1026 30.3 855 25.25 15.2 59.3 60 7.5 45.5 16.02 0.631
08:12 1026 30.3 855 25.25 15.3 59.5 57 6.8 44.3 16.09 0.633
08:13 1026 30.3 855 25.25 15.4 59.6 56 6.6 43.8 16.16 0.636
08:14 1026 30.3 855 25.25 15.4 59.8 57 6.9 44.5 16.25 0.64
08:15 1026 30.3 855 25.25 15.5 59.8 58 7.3 45.2 16.34 0.643
08:16 1026 30.3 855 25.25 15.6 60 57 7.1 44.8 16.46 0.648
08:17 1026 30.3 855 25.25 15.7 60.3 58 7.7 45.8 16.6 0.654
08:18 1026 30.3 855 25.25 15.8 60.5 56 7.1 44.8 16.77 0.66
08:19 1026 30.3 855 25.25 16 60.7 54 6.7 44.1 16.86 0.664
08:20 1026 30.3 855 25.25 16 60.8 53 6.4 43.6 16.94 0.667
08:21 1026 30.3 855 25.25 16.1 61 51 6.2 43.1 17.01 0.67
08:22 1026 30.3 855 25.25 16.1 61.1 51 6.1 43 17.1 0.673
08:23 1026 30.3 855 25.25 16.2 61.1 50 5.8 42.4 17.15 0.675
08:24 1026 30.3 855 25.25 16.2 61.1 55 7.2 44.9 17.27 0.68
08:25 1026 30.3 855 25.25 16.2 61.2 48 5.4 41.7 17.4 0.685
08:26 1026 30.3 855 25.25 16.3 61.4 54 7.2 44.9 17.48 0.688
08:27 1026 30.3 855 25.25 16.5 61.7 52 6.6 43.8 17.58 0.692
08:28 1026 30.3 855 25.25 16.6 61.8 48 5.5 42 17.66 0.695
08:29 1026 30.3 855 25.25 16.7 62.1 48 5.7 42.3 17.85 0.703
08:30 1026 30.3 855 25.25 16.9 62.4 48 6 42.8 18.04 0.71
08:31 1026 30.3 855 25.25 16.9 62.4 51 6.7 44 18.01 0.709
08:32 1026 30.3 855 25.25 17 62.5 47 5.8 42.4 17.97 0.707
08:33 1026 30.3 855 25.25 17.1 62.8 45 5.1 41.2 18.02 0.709
08:34 1026 30.3 855 25.25 17.3 63.1 47 6 42.9 17.98 0.708
08:35 1026 30.3 855 25.25 17.4 63.2 46 5.7 42.2 17.97 0.707
08:36 1026 30.3 855 25.25 17.4 63.3 46 5.7 42.3 17.83 0.702
08:37 1026 30.3 855 25.25 17.4 63.3 45 5.5 41.8 17.75 0.699
08:38 1026 30.3 855 25.25 17.3 63.2 46 5.6 42.2 17.73 0.698
08:39 1026 30.3 855 25.25 17.4 63.3 46 5.8 42.5 17.75 0.699
08:40 1026 30.3 855 25.25 17.4 63.4 44 5.3 41.5 17.74 0.698
08:41 1026 30.3 855 25.25 17.5 63.5 45 5.5 41.8 17.92 0.706
08:42 1026 30.3 855 25.25 17.7 63.8 46 6.1 42.9 18.19 0.716
08:43 1026 30.3 855 25.25 17.8 64 43 5.3 41.5 18.29 0.72
08:44 1026 30.3 855 25.25 17.8 64.1 43 5.3 41.5 18.21 0.717
08:45 1026 30.3 855 25.25 17.8 64 45 5.9 42.7 18.1 0.713
08:46 1026 30.3 855 25.25 17.7 63.9 43 5.1 41.2 18.09 0.712
08:47 1026 30.3 855 25.25 17.8 64.1 43 5.3 41.6 18.31 0.721
08:48 1026 30.3 855 25.25 18 64.4 44 5.7 42.3 18.6 0.732
08:49 1026 30.3 855 25.25 18.3 65 47 7 44.5 18.92 0.745
08:50 1026 30.3 855 25.25 18.5 65.4 43 5.9 42.6 18.89 0.744
08:51 1026 30.3 855 25.25 18.5 65.4 46 6.8 44.2 18.91 0.744
08:52 1026 30.3 855 25.25 18.6 65.5 43 5.9 42.6 18.91 0.744
08:53 1026 30.3 855 25.25 18.6 65.6 44 6.4 43.5 18.85 0.742
08:54 1026 30.3 855 25.25 18.7 65.6 42 5.6 42.1 18.92 0.745
08:55 1026 30.3 855 25.25 18.5 65.3 43 5.9 42.6 18.63 0.733
08:56 1026 30.3 855 25.25 18.3 65 43 5.7 42.2 18.42 0.725
08:57 1026 30.3 855 25.25 18.2 64.7 43 5.5 41.9 18.34 0.722
08:58 1026 30.3 855 25.25 18.1 64.7 44 5.9 42.6 18.32 0.721
08:59 1026 30.3 855 25.25 18.2 64.7 42 5.1 41.2 18.42 0.725
09:00 1026 30.3 855 25.25 18.2 64.8 41 4.8 40.7 18.5 0.728
09:01 1026 30.3 855 25.25 18.2 64.7 42 5.1 41.2 18.3 0.72
09:02 1026 30.3 855 25.25 18.2 64.7 42 5.2 41.3 18.25 0.719
09:03 1026 30.3 855 25.25 18.2 64.8 42 5.2 41.4 18.34 0.722
09:04 1026 30.3 855 25.25 18.3 65 44 6 42.8 18.55 0.73
09:05 1026 30.3 855 25.25 18.5 65.2 43 5.7 42.3 18.74 0.738
09:06 1026 30.3 855 25.25 18.5 65.2 41 5 40.9 18.82 0.741
09:07 1026 30.3 855 25.25 18.4 65.2 43 5.7 42.3 18.82 0.741
09:08 1026 30.3 855 25.25 18.5 65.4 39 4.4 39.8 18.88 0.743
09:09 1026 30.3 855 25.25 18.8 65.9 40 5.1 41.1 19.07 0.751
09:10 1026 30.3 855 25.25 19.1 66.3 43 6.4 43.5 19.29 0.759
09:11 1026 30.3 855 25.25 19.2 66.6 42 6 42.7 19.41 0.764
09:12 1026 30.3 856 25.28 19.2 66.6 41 5.7 42.2 19.26 0.758
09:13 1026 30.3 856 25.28 19 66.3 42 5.8 42.5 19.2 0.756
09:14 1026 30.3 856 25.28 19 66.2 42 5.9 42.7 19.12 0.753
09:15 1026 30.3 856 25.28 19 66.2 42 5.8 42.4 19.05 0.75
09:16 1026 30.3 856 25.28 19 66.2 40 5.3 41.6 19.09 0.752
09:17 1026 30.3 856 25.28 19 66.3 42 6.1 42.9 19.16 0.754
09:18 1026 30.3 856 25.28 19.1 66.4 43 6.3 43.3 19.24 0.757
09:19 1026 30.3 856 25.28 19.2 66.6 41 5.8 42.5 19.34 0.761
09:20 1026 30.3 856 25.28 19.3 66.8 43 6.6 43.9 19.51 0.768
09:21 1026 30.3 856 25.28 19.4 66.9 42 6.4 43.5 19.49 0.767
09:22 1026 30.3 856 25.28 19.4 66.9 40 5.5 42 19.38 0.763
09:23 1026 30.3 856 25.28 19.4 66.9 41 5.9 42.6 19.32 0.761
09:24 1026 30.3 856 25.28 19.4 66.8 39 5.1 41.3 19.28 0.759
09:25 1026 30.3 856 25.28 19.3 66.7 39 5.1 41.2 19.17 0.755
09:26 1026 30.3 856 25.28 19.2 66.5 43 6.3 43.3 19.06 0.75
09:27 1026 30.3 856 25.28 19.1 66.4 46 7.4 45.3 19.06 0.75
09:28 1026 30.3 856 25.28 19 66.1 41 5.5 41.9 18.98 0.747
09:29 1026 30.3 856 25.28 18.9 66 42 5.9 42.6 18.91 0.744
09:30 1026 30.3 856 25.28 18.9 65.9 42 5.9 42.7 18.91 0.744
09:31 1026 30.3 856 25.28 18.9 66 40 5.2 41.4 18.85 0.742
09:32 1026 30.3 856 25.28 18.9 65.9 41 5.3 41.6 18.78 0.739
09:33 1026 30.3 856 25.28 18.9 65.9 42 5.9 42.6 18.81 0.741
09:34 1026 30.3 856 25.28 19 66.1 47 7.6 45.8 18.93 0.745
09:35 1026 30.3 856 25.28 19 66.3 42 5.8 42.5 19.21 0.756
09:36 1026 30.3 856 25.28 19.1 66.4 41 5.7 42.3 19.31 0.76
09:37 1026 30.3 856 25.28 19 66.2 42 5.8 42.5 19.26 0.758
09:38 1026 30.3 856 25.28 18.8 65.9 43 6.2 43.2 19.13 0.753
09:39 1026 30.3 856 25.28 18.8 65.9 44 6.4 43.6 19.15 0.754
09:40 1026 30.3 856 25.28 18.8 65.9 45 6.8 44.2 19.09 0.752
09:41 1026 30.3 856 25.28 18.9 66 42 5.8 42.5 19.17 0.755
09:42 1026 30.3 856 25.28 18.9 66 41 5.4 41.8 19.15 0.754
09:43 1026 30.3 856 25.28 18.9 66 45 6.8 44.3 19.15 0.754
09:44 1026 30.3 856 25.28 19 66.2 41 5.7 42.3 19.3 0.76
09:45 1026 30.3 856 25.28 19.1 66.4 43 6.5 43.6 19.37 0.763
09:46 1026 30.3 856 25.28 19.1 66.4 45 7 44.5 19.28 0.759
09:47 1026 30.3 856 25.28 19.1 66.3 45 6.9 44.3 19.26 0.758
09:48 1026 30.3 856 25.28 19 66.1 42 5.9 42.6 19.21 0.756
09:49 1026 30.3 856 25.28 18.9 66 45 6.8 44.3 19.14 0.754
09:50 1026 30.3 856 25.28 18.9 66 44 6.5 43.6 19.16 0.754
09:51 1026 30.3 856 25.28 18.9 66 45 6.9 44.4 19.25 0.758
09:52 1026 30.3 856 25.28 19 66.2 42 5.9 42.5 19.32 0.761
09:53 1026 30.3 856 25.28 19 66.2 44 6.6 43.8 19.32 0.761
09:54 1026 30.3 856 25.28 19 66.2 50 8.3 47 19.35 0.762
09:55 1026 30.3 856 25.28 19.1 66.4 43 6.4 43.5 19.46 0.766
09:56 1026 30.3 856 25.28 19 66.2 44 6.7 44 19.38 0.763
09:57 1026 30.3 856 25.28 18.9 66.1 44 6.4 43.5 19.29 0.759
09:58 1026 30.3 856 25.28 18.9 66 43 6.3 43.3 19.26 0.758
09:59 1026 30.3 856 25.28 19 66.1 43 6.4 43.5 19.19 0.756
10:00 1026 30.3 856 25.28 18.9 66.1 44 6.4 43.5 19.17 0.755
10:01 1026 30.3 856 25.28 18.9 66 44 6.4 43.4 19.19 0.756
10:02 1026 30.3 856 25.28 18.9 65.9 46 7.1 44.8 19.27 0.759
10:03 1026 30.3 856 25.28 19 66.1 46 7.1 44.8 19.3 0.76
10:04 1026 30.3 856 25.28 19.1 66.3 47 7.7 45.9 19.31 0.76
10:05 1026 30.3 856 25.28 19.2 66.6 43 6.4 43.6 19.33 0.761
10:06 1026 30.3 855 25.25 19.2 66.5 43 6.6 43.8 19.34 0.761
10:07 1026 30.3 856 25.28 19.3 66.7 43 6.5 43.7 19.37 0.763
10:08 1026 30.3 856 25.28 19.3 66.7 43 6.4 43.5 19.43 0.765
10:09 1026 30.3 856 25.28 19.3 66.7 45 7 44.7 19.53 0.769
10:10 1026 30.3 856 25.28 19.4 66.9 41 5.9 42.7 19.46 0.766
10:11 1026 30.3 856 25.28 19.3 66.8 40 5.4 41.7 19.43 0.765
10:12 1026 30.3 856 25.28 19.3 66.8 41 5.9 42.5 19.44 0.765
10:13 1026 30.3 856 25.28 19.3 66.8 38 4.8 40.6 19.44 0.765
10:14 1026 30.3 855 25.25 19.3 66.8 42 6.3 43.3 19.43 0.765
10:15 1026 30.3 856 25.28 19.4 66.9 42 6.4 43.5 19.42 0.765
10:16 1026 30.3 856 25.28 19.5 67.1 44 7.2 44.9 19.55 0.77
10:17 1026 30.3 856 25.28 19.7 67.4 41 6.1 43 19.82 0.78
10:18 1026 30.3 855 25.25 19.7 67.4 43 6.8 44.2 19.74 0.777
10:19 1026 30.3 855 25.25 19.6 67.3 43 6.9 44.5 19.65 0.774
10:20 1026 30.3 855 25.25 19.6 67.3 43 6.7 44 19.73 0.777
10:21 1026 30.3 855 25.25 19.6 67.2 45 7.4 45.3 19.74 0.777
10:22 1026 30.3 855 25.25 19.6 67.3 43 6.8 44.2 19.81 0.78
10:23 1026 30.3 855 25.25 19.7 67.4 45 7.5 45.6 19.94 0.785
10:24 1026 30.3 855 25.25 19.8 67.7 42 6.8 44.2 20.04 0.789
10:25 1026 30.3 855 25.25 19.9 67.7 45 7.7 45.9 20.07 0.79
10:26 1026 30.3 855 25.25 19.9 67.8 42 6.8 44.3 20.03 0.789
10:27 1026 30.3 855 25.25 19.8 67.6 47 8.3 47 19.86 0.782
10:28 1026 30.3 855 25.25 19.8 67.6 45 7.7 45.9 19.95 0.785
10:29 1026 30.3 855 25.25 19.9 67.8 41 6.5 43.7 20.04 0.789
10:30 1026 30.3 855 25.25 19.9 67.9 42 6.8 44.2 19.95 0.785
10:31 1026 30.3 855 25.25 20 67.9 43 7.1 44.8 19.97 0.786
10:32 1026 30.3 855 25.25 20 68 44 7.4 45.3 20.05 0.789
10:33 1026 30.3 855 25.25 20 68 41 6.7 44 20.14 0.793
10:34 1026 30.3 855 25.25 20 68 40 6.1 43 20.23 0.796
10:35 1026 30.3 855 25.25 20.1 68.2 41 6.7 44.1 20.26 0.798
10:36 1026 30.3 855 25.25 20.1 68.2 44 7.5 45.4 20.15 0.793
10:37 1026 30.3 855 25.25 20.1 68.2 42 6.8 44.3 20.15 0.793
10:38 1026 30.3 855 25.25 20.1 68.2 40 6.2 43.2 20.15 0.793
10:39 1026 30.3 855 25.25 20 68 39 5.7 42.3 20.02 0.788
10:40 1026 30.3 855 25.25 20 68 37 5.1 41.1 20.06 0.79
10:41 1026 30.3 855 25.25 20 67.9 39 5.7 42.3 20.16 0.794
10:42 1026 30.3 855 25.25 20 68 41 6.6 43.8 20.3 0.799
10:43 1026 30.3 855 25.25 20.2 68.3 39 5.8 42.4 20.38 0.802
10:44 1026 30.3 855 25.25 20.1 68.2 40 6.2 43.2 20.26 0.798
10:45 1026 30.3 855 25.25 20 68 41 6.5 43.8 20.19 0.795
10:46 1026 30.3 855 25.25 20.1 68.2 40 6.4 43.5 20.28 0.798
10:47 1026 30.3 855 25.25 20.1 68.2 43 7.2 45 20.26 0.798
10:48 1026 30.3 855 25.25 20.1 68.3 38 5.4 41.8 20.31 0.8
10:49 1026 30.3 855 25.25 20.1 68.2 39 5.8 42.4 20.31 0.8
10:50 1026 30.3 855 25.25 20.2 68.4 40 6.4 43.6 20.47 0.806
10:51 1026 30.3 855 25.25 20.3 68.5 39 6 42.8 20.55 0.809
10:52 1026 30.3 855 25.25 20.3 68.6 38 5.8 42.4 20.46 0.806
10:53 1026 30.3 855 25.25 20.3 68.6 36 4.9 40.8 20.38 0.802
10:54 1026 30.3 855 25.25 20.3 68.5 38 5.6 42 20.37 0.802
10:55 1026 30.3 855 25.25 20.2 68.4 41 6.5 43.7 20.28 0.798
10:56 1026 30.3 855 25.25 20.2 68.4 35 4.6 40.2 20.32 0.8
10:57 1026 30.3 855 25.25 20.3 68.5 39 5.9 42.7 20.38 0.802
10:58 1026 30.3 855 25.25 20.3 68.5 39 5.9 42.7 20.36 0.802
10:59 1026 30.3 855 25.25 20.2 68.4 38 5.6 42 20.31 0.8
11:00 1026 30.3 855 25.25 20.1 68.2 40 6.3 43.4 20.18 0.794
11:01 1026 30.3 855 25.25 20.1 68.2 37 5.1 41.2 20.28 0.798
11:02 1026 30.3 855 25.25 20.1 68.3 40 6.1 43 20.32 0.8
11:03 1026 30.3 855 25.25 20.2 68.4 37 5.3 41.5 20.49 0.807
11:04 1026 30.3 855 25.25 20.4 68.7 41 6.7 44.1 20.6 0.811
11:05 1026 30.3 855 25.25 20.5 68.8 37 5.5 42 20.6 0.811
11:06 1026 30.3 855 25.25 20.5 68.9 39 6.3 43.3 20.7 0.815
11:07 1026 30.3 855 25.25 20.6 69.1 37 5.4 41.7 20.77 0.818
11:08 1026 30.3 855 25.25 20.6 69 36 5 41.1 20.68 0.814
11:09 1026 30.3 855 25.25 20.4 68.7 36 5 41 20.55 0.809
11:10 1026 30.3 855 25.25 20.3 68.6 38 5.9 42.6 20.5 0.807
11:11 1026 30.3 855 25.25 20.4 68.6 38 5.7 42.2 20.5 0.807
11:12 1026 30.3 855 25.25 20.4 68.7 39 6.1 43 20.65 0.813
11:13 1026 30.3 855 25.25 20.6 69 40 6.7 44.1 20.85 0.821
11:14 1026 30.3 855 25.25 20.7 69.3 40 6.7 44.1 20.95 0.825
11:15 1026 30.3 855 25.25 20.8 69.5 34 4.4 39.9 21.04 0.828
11:16 1026 30.3 855 25.25 20.8 69.4 33 4.2 39.6 20.87 0.822
11:17 1026 30.3 855 25.25 20.7 69.3 37 5.8 42.5 20.84 0.82
11:18 1026 30.3 855 25.25 20.8 69.4 35 5.1 41.1 20.97 0.826
11:19 1026 30.3 855 25.25 20.9 69.5 36 5.4 41.7 21.06 0.829
11:20 1026 30.3 855 25.25 20.8 69.5 30 2.9 37.2 20.94 0.824
11:21 1026 30.3 855 25.25 20.8 69.4 33 4.1 39.3 20.75 0.817
11:22 1026 30.3 855 25.25 20.7 69.2 36 5.1 41.2 20.74 0.817
11:23 1026 30.3 855 25.25 20.8 69.4 32 3.8 38.9 20.96 0.825
11:24 1026 30.3 855 25.25 20.8 69.5 33 4.2 39.6 20.95 0.825
11:25 1026 30.3 855 25.25 20.8 69.4 36 5.5 41.9 20.94 0.824
11:26 1026 30.3 855 25.25 20.9 69.5 33 4.3 39.7 21.05 0.829
11:27 1026 30.3 855 25.25 20.8 69.5 32 3.8 38.8 20.91 0.823
11:28 1026 30.3 855 25.25 20.8 69.5 36 5.2 41.4 20.99 0.826
11:29 1026 30.3 855 25.25 20.9 69.6 32 3.6 38.5 21.02 0.828
11:30 1026 30.3 855 25.25 20.9 69.7 32 3.8 38.8 21.13 0.832
11:31 1026 30.3 855 25.25 21.1 70 31 3.6 38.5 21.3 0.839
11:32 1026 30.3 855 25.25 21.3 70.4 32 4.3 39.7 21.51 0.847
11:33 1026 30.3 855 25.25 21.5 70.6 36 5.8 42.5 21.66 0.853
11:34 1026 30.3 855 25.25 21.5 70.7 36 5.9 42.7 21.73 0.856
11:35 1026 30.3 855 25.25 21.5 70.8 32 4.2 39.5 21.68 0.854
11:36 1026 30.3 855 25.25 21.5 70.6 35 5.4 41.7 21.6 0.85
11:37 1026 30.3 855 25.25 21.4 70.6 31 3.6 38.5 21.63 0.852
11:38 1026 30.3 855 25.25 21.5 70.6 33 4.8 40.7 21.56 0.849
11:39 1026 30.3 855 25.25 21.5 70.7 31 3.9 39 21.69 0.854
11:40 1026 30.3 855 25.25 21.6 70.8 31 4 39.1 21.64 0.852
11:41 1026 30.3 855 25.25 21.5 70.7 33 4.8 40.7 21.65 0.852
11:42 1026 30.3 855 25.25 21.6 70.9 30 3.7 38.6 21.75 0.856
11:43 1026 30.3 855 25.25 21.7 71.1 33 4.9 40.9 21.9 0.862
11:44 1026 30.3 855 25.25 21.7 71.1 32 4.7 40.4 22.05 0.868
11:45 1026 30.3 855 25.25 21.8 71.3 31 4.2 39.5 22.34 0.88
11:46 1026 30.3 855 25.25 22.1 71.7 33 5.2 41.3 22.45 0.884
11:47 1026 30.3 855 25.25 22.2 72 30 4.1 39.4 22.45 0.884
11:48 1026 30.3 855 25.25 22.1 71.8 33 5.1 41.2 22.26 0.876
11:49 1026 30.3 855 25.25 21.9 71.4 30 3.9 39.1 22.07 0.869
11:50 1026 30.3 855 25.25 21.8 71.3 32 4.7 40.4 22.09 0.87
11:51 1026 30.3 855 25.25 21.9 71.3 33 5.1 41.1 22.03 0.867
11:52 1026 30.3 855 25.25 21.8 71.3 33 5 41.1 22.04 0.868
11:53 1026 30.3 855 25.25 21.8 71.2 32 4.6 40.2 22.01 0.867
11:54 1026 30.3 855 25.25 21.7 71.1 32 4.5 40.1 21.99 0.866
11:55 1026 30.3 855 25.25 21.8 71.2 32 4.4 39.9 21.98 0.865
11:56 1026 30.3 855 25.25 21.8 71.2 34 5.5 41.9 22.02 0.867
11:57 1026 30.3 855 25.25 21.7 71 33 5.1 41.2 21.76 0.857
11:58 1026 30.3 855 25.25 21.7 71.1 33 5.1 41.1 21.85 0.86
11:59 1026 30.3 855 25.25 21.8 71.3 34 5.3 41.5 22.11 0.87
12:00 1026 30.3 855 25.25 21.9 71.5 33 5.1 41.1 22.1 0.87
12:01 1026 30.3 855 25.25 22 71.6 35 5.9 42.6 22.2 0.874
12:02 1026 30.3 855 25.25 22.2 71.9 33 5.4 41.8 22.38 0.881
12:03 1026 30.3 855 25.25 22.4 72.2 35 6.4 43.4 22.61 0.89
12:04 1026 30.3 855 25.25 22.5 72.5 32 5.2 41.4 22.81 0.898
12:05 1026 30.3 855 25.25 22.6 72.7 29 4.1 39.4 22.9 0.902
12:06 1026 30.3 855 25.25 22.7 72.9 30 4.6 40.2 22.85 0.9
12:07 1026 30.3 855 25.25 22.6 72.6 30 4.5 40.2 22.59 0.889
12:08 1026 30.3 855 25.25 22.3 72.2 33 5.3 41.5 22.4 0.882
12:09 1026 30.3 855 25.25 22.4 72.3 31 4.4 39.9 22.58 0.889
12:10 1026 30.3 855 25.25 22.5 72.4 30 4.5 40 22.52 0.887
12:11 1026 30.3 855 25.25 22.3 72.2 31 4.5 40.1 22.31 0.878
12:12 1026 30.3 855 25.25 22.1 71.8 34 5.6 42 22.14 0.872
12:13 1026 30.3 855 25.25 21.9 71.4 32 4.8 40.7 22.03 0.867
12:14 1026 30.3 855 25.25 21.8 71.3 34 5.6 42.1 22 0.866
12:15 1025 30.27 855 25.25 21.8 71.3 32 4.5 40 22.07 0.869
12:16 1025 30.27 855 25.25 21.9 71.3 33 5.2 41.4 22.09 0.87
12:17 1025 30.27 855 25.25 21.9 71.5 34 5.7 42.3 22.17 0.873
12:18 1025 30.27 855 25.25 22 71.6 33 5.1 41.1 22.2 0.874
12:19 1025 30.27 855 25.25 22 71.6 33 5.4 41.6 22.24 0.876
12:20 1025 30.27 855 25.25 22 71.6 32 4.6 40.2 22.15 0.872
12:21 1025 30.27 855 25.25 22 71.5 32 4.7 40.4 22.13 0.871
12:22 1025 30.27 855 25.25 22 71.6 32 4.7 40.5 22.13 0.871
12:23 1025 30.27 855 25.25 22 71.6 33 5.4 41.7 22.26 0.876
12:24 1025 30.27 855 25.25 22 71.7 33 5.2 41.4 22.26 0.876
12:25 1025 30.27 855 25.25 22.1 71.8 32 4.9 40.9 22.33 0.879
12:26 1025 30.27 855 25.25 22.3 72.1 37 7 44.5 22.56 0.888
12:27 1025 30.27 855 25.25 22.4 72.4 31 4.6 40.2 22.77 0.896
12:28 1025 30.27 855 25.25 22.4 72.2 31 4.7 40.4 22.66 0.892
12:29 1025 30.27 855 25.25 22.2 72 32 4.7 40.5 22.59 0.889
12:30 1025 30.27 855 25.25 22.1 71.9 31 4.6 40.2 22.52 0.887
12:31 1025 30.27 855 25.25 22.1 71.7 35 5.9 42.7 22.45 0.884
12:32 1025 30.27 855 25.25 22.2 72 34 5.6 42.2 22.58 0.889
12:33 1025 30.27 855 25.25 22.3 72.2 32 5.1 41.2 22.6 0.89
12:34 1025 30.27 855 25.25 22.3 72.1 32 5.2 41.4 22.55 0.888
12:35 1025 30.27 854 25.22 22.3 72.2 35 6.3 43.3 22.46 0.884
12:36 1025 30.27 854 25.22 22.3 72.2 31 4.7 40.4 22.58 0.889
12:37 1025 30.27 854 25.22 22.4 72.4 35 6.3 43.4 22.58 0.889
12:38 1025 30.27 854 25.22 22.6 72.7 31 4.9 40.8 22.85 0.9
12:39 1025 30.27 854 25.22 22.8 73 35 6.6 43.9 22.95 0.904
12:40 1025 30.27 854 25.22 22.8 73.1 33 5.9 42.7 23.06 0.908
12:41 1025 30.27 854 25.22 22.9 73.2 32 5.4 41.7 23.12 0.91
12:42 1025 30.27 854 25.22 22.9 73.3 30 4.8 40.6 23.14 0.911
12:43 1025 30.27 854 25.22 22.8 73 32 5.6 42.1 22.93 0.903
12:44 1025 30.27 854 25.22 22.7 72.8 34 6.4 43.4 22.9 0.902
12:45 1025 30.27 854 25.22 22.7 72.9 32 5.5 42 22.95 0.904
12:46 1025 30.27 854 25.22 22.7 72.9 36 7.1 44.8 23.03 0.907
12:47 1025 30.27 854 25.22 22.7 72.9 36 7 44.6 23.02 0.906
12:48 1025 30.27 854 25.22 22.8 73 32 5.3 41.5 23.09 0.909
12:49 1025 30.27 854 25.22 22.7 72.9 33 5.8 42.5 23.04 0.907
12:50 1025 30.27 854 25.22 22.8 73.1 35 6.6 44 23.08 0.909
12:51 1025 30.27 854 25.22 23.1 73.6 31 5.1 41.2 23.37 0.92
12:52 1025 30.27 854 25.22 23 73.5 33 6.1 43 23.27 0.916
12:53 1025 30.27 854 25.22 23 73.4 33 6 42.8 23.23 0.915
12:54 1025 30.27 854 25.22 23 73.5 35 6.8 44.3 23.23 0.915
12:55 1025 30.27 854 25.22 23.1 73.6 31 5.1 41.2 23.34 0.919
12:56 1025 30.27 854 25.22 23.2 73.7 34 6.6 43.9 23.34 0.919
12:57 1025 30.27 854 25.22 23.2 73.8 34 6.6 43.9 23.46 0.924
12:58 1025 30.27 854 25.22 23.3 73.9 33 6.1 43.1 23.45 0.923
12:59 1025 30.27 854 25.22 23.2 73.7 33 6.3 43.3 23.4 0.921
13:00 1025 30.27 854 25.22 23.2 73.7 36 7.4 45.3 23.39 0.921
13:01 1025 30.27 854 25.22 23.3 73.9 35 7 44.6 23.51 0.926
13:02 1025 30.27 854 25.22 23.2 73.8 32 5.8 42.5 23.52 0.926
13:03 1025 30.27 854 25.22 23.1 73.5 34 6.8 44.2 23.46 0.924
13:04 1025 30.27 854 25.22 23.1 73.5 31 5.3 41.5 23.46 0.924
13:05 1025 30.27 854 25.22 23.1 73.5 36 7.5 45.4 23.36 0.92
13:06 1025 30.27 854 25.22 23.2 73.8 34 6.9 44.4 23.54 0.927
13:07 1025 30.27 854 25.22 23.3 74 34 6.6 43.9 23.53 0.926
13:08 1025 30.27 854 25.22 23.2 73.7 31 5.3 41.5 23.38 0.92
13:09 1025 30.27 854 25.22 23.1 73.6 33 6 42.7 23.34 0.919
13:10 1025 30.27 854 25.22 23.1 73.6 32 5.7 42.2 23.33 0.919
13:11 1025 30.27 854 25.22 23.1 73.6 31 5.2 41.4 23.32 0.918
13:12 1025 30.27 854 25.22 23.1 73.6 32 5.7 42.3 23.38 0.92
13:13 1025 30.27 854 25.22 23.1 73.7 34 6.6 43.9 23.38 0.92
13:14 1025 30.27 854 25.22 23.3 73.9 32 5.9 42.7 23.57 0.928
13:15 1025 30.27 854 25.22 23.4 74.2 31 5.4 41.8 23.61 0.93
13:16 1025 30.27 854 25.22 23.5 74.2 34 7 44.7 23.62 0.93
13:17 1025 30.27 854 25.22 23.5 74.4 30 5.1 41.1 23.76 0.935
13:18 1025 30.27 854 25.22 23.6 74.5 29 4.9 40.8 23.83 0.938
13:19 1025 30.27 854 25.22 23.6 74.5 30 5.2 41.4 23.77 0.936
13:20 1025 30.27 854 25.22 23.6 74.5 31 5.6 42.1 23.69 0.933
13:21 1025 30.27 854 25.22 23.5 74.3 29 4.7 40.5 23.72 0.934
13:22 1025 30.27 854 25.22 23.5 74.2 34 7 44.5 23.66 0.931
13:23 1025 30.27 854 25.22 23.5 74.3 32 5.9 42.6 23.82 0.938
13:24 1025 30.27 854 25.22 23.6 74.6 35 7.4 45.3 23.91 0.941
13:25 1025 30.27 854 25.22 23.7 74.7 32 6.1 43 24.03 0.946
13:26 1025 30.27 854 25.22 23.8 74.8 29 5.1 41.1 23.99 0.944
13:27 1025 30.27 854 25.22 23.6 74.6 32 6.4 43.5 23.97 0.944
13:28 1025 30.27 854 25.22 23.7 74.7 31 5.9 42.7 23.96 0.943
13:29 1025 30.27 854 25.22 23.6 74.4 32 6.2 43.1 23.78 0.936
13:30 1025 30.27 854 25.22 23.6 74.4 32 6.2 43.2 23.85 0.939
13:31 1025 30.27 854 25.22 23.7 74.7 31 6 42.7 24 0.945
13:32 1025 30.27 854 25.22 23.8 74.9 30 5.3 41.6 24.05 0.947
13:33 1025 30.27 854 25.22 23.7 74.7 31 6 42.8 23.9 0.941
13:34 1025 30.27 854 25.22 23.6 74.4 32 6.2 43.2 23.81 0.937
13:35 1025 30.27 854 25.22 23.7 74.7 30 5.2 41.4 24.03 0.946
13:36 1025 30.27 854 25.22 23.8 74.8 30 5.3 41.5 24.07 0.948
13:37 1025 30.27 854 25.22 23.8 74.8 30 5.2 41.3 24.04 0.946
13:38 1025 30.27 854 25.22 23.8 74.8 30 5.2 41.4 24.01 0.945
13:39 1025 30.27 854 25.22 23.8 74.9 33 6.8 44.3 24.03 0.946
13:40 1025 30.27 854 25.22 24 75.2 31 6.1 43.1 24.25 0.955
13:41 1025 30.27 854 25.22 24.1 75.5 29 5.3 41.6 24.32 0.957
13:42 1025 30.27 854 25.22 24.1 75.4 31 6.3 43.4 24.26 0.955
13:43 1025 30.27 854 25.22 24.1 75.4 32 6.8 44.2 24.22 0.954
13:44 1025 30.27 854 25.22 24.1 75.4 29 5.1 41.2 24.27 0.956
13:45 1025 30.27 854 25.22 24.2 75.5 30 5.8 42.5 24.35 0.959
13:46 1025 30.27 854 25.22 24.2 75.6 28 5 41.1 24.44 0.962
13:47 1025 30.27 854 25.22 24.4 75.9 28 5 41 24.57 0.967
13:48 1025 30.27 854 25.22 24.4 75.8 27 4.5 40 24.43 0.962
13:49 1025 30.27 854 25.22 24.3 75.7 30 5.7 42.2 24.38 0.96
13:50 1025 30.27 854 25.22 24.2 75.6 30 5.9 42.6 24.34 0.958
13:51 1025 30.27 854 25.22 24.2 75.5 30 5.9 42.5 24.34 0.958
13:52 1025 30.27 854 25.22 24.3 75.7 31 6.3 43.3 24.43 0.962
13:53 1025 30.27 854 25.22 24.4 75.9 29 5.6 42 24.59 0.968
13:54 1025 30.27 854 25.22 24.5 76.1 28 4.8 40.7 24.66 0.971
13:55 1025 30.27 854 25.22 24.4 75.8 34 7.5 45.6 24.49 0.964
13:56 1025 30.27 854 25.22 24.4 75.9 29 5.6 42.2 24.62 0.969
13:57 1025 30.27 854 25.22 24.4 76 28 5.2 41.3 24.71 0.973
13:58 1025 30.27 854 25.22 24.4 75.9 31 6.5 43.7 24.65 0.97
13:59 1025 30.27 854 25.22 24.4 76 30 6.1 42.9 24.78 0.976
14:00 1025 30.27 854 25.22 24.6 76.2 31 6.4 43.5 24.98 0.983
14:01 1025 30.27 854 25.22 24.7 76.4 31 6.6 43.9 24.99 0.984
14:02 1025 30.27 854 25.22 24.6 76.3 29 5.4 41.8 24.84 0.978
14:03 1025 30.27 854 25.22 24.5 76.1 31 6.3 43.4 24.67 0.971
14:04 1025 30.27 854 25.22 24.6 76.2 29 5.4 41.7 24.76 0.975
14:05 1025 30.27 854 25.22 24.7 76.4 32 7.1 44.7 24.9 0.98
14:06 1025 30.27 854 25.22 24.8 76.7 30 6.2 43.1 25.19 0.992
14:07 1025 30.27 854 25.22 24.9 76.9 31 7 44.5 25.23 0.993
14:08 1025 30.27 854 25.22 25.1 77.2 31 7 44.6 25.37 0.999
14:09 1025 30.27 854 25.22 25.3 77.6 31 7 44.7 25.57 1.007
14:10 1025 30.27 854 25.22 25.4 77.7 31 7.2 45 25.64 1.009
14:11 1025 30.27 854 25.22 25.4 77.7 29 6.5 43.6 25.72 1.013
14:12 1025 30.27 854 25.22 25.3 77.6 30 6.7 44.1 25.71 1.012
14:13 1025 30.27 854 25.22 25.1 77.2 30 6.6 43.9 25.45 1.002
14:14 1025 30.27 854 25.22 24.9 76.7 29 6.1 42.9 25.19 0.992
14:15 1025 30.27 854 25.22 24.6 76.3 29 5.7 42.3 24.98 0.983
14:16 1025 30.27 854 25.22 24.5 76.1 29 5.8 42.4 24.88 0.98
14:17 1025 30.27 854 25.22 24.5 76.2 31 6.6 43.9 24.94 0.982
14:18 1025 30.27 854 25.22 24.7 76.5 30 6.4 43.5 25.1 0.988
14:19 1025 30.27 854 25.22 24.9 76.8 30 6.2 43.2 25.2 0.992
14:20 1025 30.27 854 25.22 25 76.9 28 5.2 41.4 25.19 0.992
14:21 1025 30.27 854 25.22 25 76.9 32 7.3 45.1 25.17 0.991
14:22 1025 30.27 854 25.22 25 77 30 6.4 43.5 25.21 0.993
14:23 1025 30.27 854 25.22 24.9 76.9 31 7 44.7 25.13 0.989
14:24 1025 30.27 854 25.22 25 77 28 5.7 42.3 25.21 0.993
14:25 1025 30.27 854 25.22 24.9 76.9 29 5.8 42.4 25.06 0.987
14:26 1025 30.27 854 25.22 24.8 76.7 28 5.4 41.7 24.99 0.984
14:27 1025 30.27 854 25.22 25 76.9 31 6.8 44.2 25.14 0.99
14:28 1025 30.27 854 25.22 25.1 77.1 29 6.2 43.2 25.25 0.994
14:29 1024 30.24 854 25.22 25.1 77.2 28 5.6 42.1 25.36 0.998
14:30 1025 30.27 854 25.22 25.1 77.2 30 6.7 44.1 25.36 0.998
14:31 1024 30.24 854 25.22 25 77.1 29 6.2 43.1 25.25 0.994
14:32 1024 30.24 854 25.22 25 76.9 31 6.9 44.4 25.26 0.994
14:33 1024 30.24 854 25.22 25.1 77.1 30 6.3 43.3 25.35 0.998
14:34 1024 30.24 854 25.22 25.1 77.2 29 6.1 42.9 25.42 1.001
14:35 1024 30.24 854 25.22 25.3 77.5 30 6.9 44.4 25.55 1.006
14:36 1024 30.24 854 25.22 25.4 77.7 27 5.4 41.7 25.7 1.012
14:37 1024 30.24 854 25.22 25.5 77.8 33 8.1 46.6 25.63 1.009
14:38 1024 30.24 854 25.22 25.5 77.9 29 6.4 43.4 25.75 1.014
14:39 1024 30.24 854 25.22 25.5 77.9 30 6.9 44.5 25.82 1.017
14:40 1024 30.24 854 25.22 25.6 78.1 30 6.8 44.3 25.82 1.017
14:41 1024 30.24 854 25.22 25.6 78.1 32 8.2 46.7 25.81 1.016
14:42 1024 30.24 854 25.22 25.6 78.2 28 5.9 42.6 25.93 1.021
14:43 1024 30.24 854 25.22 25.6 78 28 5.8 42.5 25.91 1.02
14:44 1024 30.24 854 25.22 25.6 78.1 30 7.1 44.7 25.84 1.017
14:45 1024 30.24 854 25.22 25.6 78 29 6.4 43.5 25.77 1.015
14:46 1024 30.24 853 25.19 25.4 77.7 32 7.7 45.8 25.68 1.011
14:47 1024 30.24 854 25.22 25.5 77.8 28 6.1 43 25.79 1.015
14:48 1024 30.24 854 25.22 25.6 78 28 5.9 42.6 25.67 1.011
14:49 1024 30.24 853 25.19 25.4 77.6 27 5.1 41.2 25.44 1.002
14:50 1024 30.24 853 25.19 25.1 77.2 31 7.1 44.7 25.31 0.996
14:51 1024 30.24 853 25.19 25.1 77.2 29 5.9 42.7 25.27 0.995
14:52 1024 30.24 854 25.22 25 77 29 6.1 43 25.13 0.989
14:53 1024 30.24 853 25.19 25 76.9 28 5.7 42.2 25.18 0.991
14:54 1024 30.24 853 25.19 25 76.9 28 5.5 41.9 25.18 0.991
14:55 1024 30.24 853 25.19 25 77 31 6.9 44.4 25.26 0.994
14:56 1024 30.24 853 25.19 25.1 77.2 31 7.1 44.9 25.36 0.998
14:57 1024 30.24 853 25.19 25.2 77.4 33 7.8 46.1 25.59 1.007
14:58 1024 30.24 853 25.19 25.5 77.9 29 6.6 43.9 25.88 1.019
14:59 1024 30.24 853 25.19 25.6 78.1 30 7 44.6 25.91 1.02
15:00 1024 30.24 853 25.19 25.4 77.8 27 5.4 41.7 25.61 1.008
15:01 1024 30.24 853 25.19 25.2 77.4 30 6.8 44.2 25.41 1
15:02 1024 30.24 853 25.19 25.2 77.3 28 5.6 42.1 25.45 1.002
15:03 1024 30.24 853 25.19 25.3 77.5 30 6.5 43.7 25.52 1.005
15:04 1024 30.24 853 25.19 25.4 77.7 29 6.4 43.5 25.55 1.006
15:05 1024 30.24 853 25.19 25.4 77.7 27 5.5 41.9 25.55 1.006
15:06 1024 30.24 853 25.19 25.4 77.8 28 5.8 42.4 25.45 1.002
15:07 1024 30.24 853 25.19 25.4 77.7 32 7.7 45.8 25.45 1.002
15:08 1024 30.24 853 25.19 25.3 77.6 28 6 42.8 25.48 1.003
15:09 1024 30.24 853 25.19 25.3 77.5 30 6.9 44.4 25.44 1.002
15:10 1024 30.24 853 25.19 25.3 77.6 30 6.6 43.9 25.59 1.007
15:11 1024 30.24 853 25.19 25.4 77.7 30 6.6 43.9 25.55 1.006
15:12 1024 30.24 853 25.19 25.3 77.5 30 6.9 44.4 25.45 1.002
15:13 1024 30.24 853 25.19 25.3 77.5 29 6.1 43 25.52 1.005
15:14 1024 30.24 853 25.19 25.4 77.7 32 8 46.3 25.74 1.013
15:15 1024 30.24 853 25.19 25.6 78.1 28 5.9 42.6 25.94 1.021
15:16 1024 30.24 853 25.19 25.7 78.3 28 6.1 42.9 25.97 1.022
15:17 1024 30.24 853 25.19 25.8 78.4 30 7.3 45.2 26.03 1.025
15:18 1024 30.24 853 25.19 25.9 78.6 28 6.2 43.1 26.13 1.029
15:19 1024 30.24 853 25.19 25.8 78.4 29 6.4 43.6 26.01 1.024
15:20 1024 30.24 853 25.19 25.7 78.3 31 7.7 45.9 26.02 1.024
15:21 1024 30.24 853 25.19 25.8 78.4 27 5.9 42.6 26.07 1.026
15:22 1024 30.24 853 25.19 25.9 78.6 29 6.6 43.9 26.16 1.03
15:23 1024 30.24 853 25.19 26.1 78.9 33 8.7 47.6 26.27 1.034
15:24 1024 30.24 853 25.19 26.1 79 30 7.5 45.5 26.42 1.04
15:25 1024 30.24 853 25.19 26.2 79.2 28 6.7 44 26.38 1.039
15:26 1024 30.24 853 25.19 26.1 79 28 6.5 43.7 26.21 1.032
15:27 1024 30.24 853 25.19 25.9 78.5 28 6.5 43.6 26.01 1.024
15:28 1024 30.24 853 25.19 25.7 78.2 28 6.2 43.2 25.81 1.016
15:29 1024 30.24 853 25.19 25.5 77.9 33 8.3 46.9 25.7 1.012
15:30 1024 30.24 853 25.19 25.5 77.9 29 6.6 43.9 25.75 1.014
15:31 1024 30.24 853 25.19 25.7 78.2 30 7.1 44.8 25.95 1.022
15:32 1024 30.24 853 25.19 25.7 78.3 31 7.5 45.6 25.93 1.021
15:33 1024 30.24 853 25.19 25.7 78.2 28 6.2 43.2 25.87 1.019
15:34 1024 30.24 853 25.19 25.6 78.1 29 6.6 43.8 25.89 1.019
15:35 1024 30.24 853 25.19 25.7 78.2 29 6.7 44.1 25.96 1.022
15:36 1024 30.24 853 25.19 25.8 78.4 30 6.9 44.5 26.08 1.027
15:37 1024 30.24 853 25.19 25.9 78.6 31 7.6 45.7 26.23 1.033
15:38 1024 30.24 853 25.19 26 78.9 29 7.1 44.8 26.31 1.036
15:39 1024 30.24 853 25.19 26.1 79 28 6.6 43.9 26.33 1.037
15:40 1024 30.24 853 25.19 26.1 79 29 7 44.6 26.32 1.036
15:41 1024 30.24 853 25.19 26.2 79.1 28 6.2 43.2 26.41 1.04
15:42 1024 30.24 853 25.19 26.3 79.3 27 6.1 42.9 26.42 1.04
15:43 1024 30.24 853 25.19 26.3 79.3 29 7.1 44.8 26.37 1.038
15:44 1024 30.24 853 25.19 26.3 79.3 27 5.9 42.6 26.48 1.043
15:45 1024 30.24 853 25.19 26.3 79.4 27 6.1 42.9 26.46 1.042
15:46 1024 30.24 853 25.19 26.3 79.3 27 5.8 42.5 26.31 1.036
15:47 1024 30.24 853 25.19 26.2 79.1 26 5.2 41.4 26.22 1.032
15:48 1024 30.24 853 25.19 26.1 79 29 6.8 44.3 26.14 1.029
15:49 1024 30.24 853 25.19 26.1 79 29 7 44.6 26.17 1.03
15:50 1024 30.24 853 25.19 26.1 79.1 27 5.9 42.6 26.24 1.033
15:51 1024 30.24 853 25.19 26.1 79.1 29 6.9 44.5 26.26 1.034
15:52 1024 30.24 853 25.19 26.2 79.2 27 6.2 43.1 26.38 1.039
15:53 1024 30.24 853 25.19 26.3 79.3 26 5.5 41.9 26.4 1.039
15:54 1024 30.24 853 25.19 26.2 79.1 27 5.8 42.5 26.25 1.033
15:55 1024 30.24 853 25.19 26 78.7 27 5.8 42.5 26.12 1.028
15:56 1024 30.24 853 25.19 25.9 78.6 28 6.3 43.4 26.09 1.027
15:57 1024 30.24 853 25.19 25.9 78.5 26 5.4 41.7 26.03 1.025
15:58 1024 30.24 853 25.19 25.9 78.6 26 4.9 40.9 26.06 1.026
15:59 1024 30.24 853 25.19 25.9 78.5 29 6.5 43.7 26.08 1.027
16:00 1024 30.24 853 25.19 25.9 78.7 27 5.6 42.1 26.18 1.031
16:01 1024 30.24 853 25.19 26 78.8 26 5.5 41.9 26.23 1.033
16:02 1024 30.24 853 25.19 26 78.8 26 5.3 41.6 26.18 1.031
16:03 1024 30.24 853 25.19 26 78.8 29 6.9 44.5 26.13 1.029
16:04 1024 30.24 853 25.19 26.1 79 29 6.8 44.2 26.42 1.04
16:05 1024 30.24 853 25.19 26.3 79.4 26 5.7 42.3 26.63 1.048
16:06 1024 30.24 853 25.19 26.4 79.6 27 6.3 43.4 26.68 1.05
16:07 1024 30.24 853 25.19 26.3 79.4 27 5.9 42.6 26.56 1.046
16:08 1024 30.24 853 25.19 26.3 79.3 28 6.7 44.1 26.56 1.046
16:09 1024 30.24 853 25.19 26.4 79.4 26 5.8 42.5 26.59 1.047
16:10 1024 30.24 853 25.19 26.4 79.5 25 5 41.1 26.57 1.046
16:11 1024 30.24 853 25.19 26.4 79.6 29 7.2 45 26.55 1.045
16:12 1024 30.24 853 25.19 26.5 79.7 27 6.3 43.4 26.67 1.05
16:13 1024 30.24 853 25.19 26.7 80 29 7.5 45.4 26.71 1.052
16:14 1024 30.24 853 25.19 26.5 79.7 26 5.9 42.6 26.59 1.047
16:15 1024 30.24 853 25.19 26.4 79.5 29 6.9 44.5 26.65 1.049
16:16 1024 30.24 853 25.19 26.3 79.3 25 5.1 41.1 26.59 1.047
16:17 1024 30.24 853 25.19 26.2 79.2 26 5.3 41.5 26.48 1.043
16:18 1024 30.24 853 25.19 26.2 79.2 26 5.6 42 26.37 1.038
16:19 1024 30.24 853 25.19 26.3 79.3 28 6.6 43.9 26.45 1.041
16:20 1024 30.24 853 25.19 26.4 79.5 27 6.1 42.9 26.59 1.047
16:21 1024 30.24 853 25.19 26.4 79.6 27 6 42.8 26.58 1.046
16:22 1024 30.24 853 25.19 26.4 79.5 26 5.7 42.3 26.55 1.045
16:23 1024 30.24 853 25.19 26.4 79.5 26 5.8 42.5 26.51 1.044
16:24 1024 30.24 853 25.19 26.5 79.7 24 4.6 40.2 26.65 1.049
16:25 1024 30.24 853 25.19 26.6 79.9 26 5.8 42.4 26.79 1.055
16:26 1024 30.24 853 25.19 26.8 80.3 25 5.4 41.7 26.95 1.061
16:27 1024 30.24 853 25.19 26.8 80.3 25 5.6 42.1 26.83 1.056
16:28 1024 30.24 853 25.19 26.7 80 25 5.3 41.5 26.68 1.05
16:29 1024 30.24 853 25.19 26.4 79.5 28 6.5 43.6 26.46 1.042
16:30 1024 30.24 853 25.19 26.3 79.4 27 6.3 43.4 26.49 1.043
16:31 1024 30.24 853 25.19 26.3 79.4 28 6.6 44 26.58 1.046
16:32 1024 30.24 853 25.19 26.5 79.6 26 5.7 42.3 26.65 1.049
16:33 1024 30.24 853 25.19 26.4 79.6 24 4.7 40.5 26.51 1.044
16:34 1024 30.24 853 25.19 26.2 79.2 26 5.6 42.1 26.28 1.035
16:35 1024 30.24 853 25.19 26.1 79.1 26 5.4 41.7 26.28 1.035
16:36 1024 30.24 853 25.19 26.2 79.1 25 4.7 40.5 26.42 1.04
16:37 1024 30.24 853 25.19 26.2 79.2 26 5.6 42.1 26.58 1.046
16:38 1024 30.24 853 25.19 26.3 79.4 27 6 42.7 26.71 1.052
16:39 1024 30.24 853 25.19 26.4 79.6 27 6.4 43.6 26.78 1.054
16:40 1024 30.24 853 25.19 26.5 79.8 29 7.2 44.9 26.87 1.058
16:41 1024 30.24 853 25.19 26.6 79.8 26 5.8 42.5 26.78 1.054
16:42 1024 30.24 853 25.19 26.4 79.6 28 6.5 43.7 26.6 1.047
16:43 1024 30.24 853 25.19 26.3 79.4 27 6 42.8 26.48 1.043
16:44 1024 30.24 853 25.19 26.2 79.2 26 5.2 41.3 26.37 1.038
16:45 1024 30.24 853 25.19 26.3 79.3 26 5.4 41.8 26.46 1.042
16:46 1024 30.24 853 25.19 26.3 79.3 30 7.5 45.5 26.45 1.041
16:47 1024 30.24 853 25.19 26.3 79.4 27 6.1 43 26.6 1.047
16:48 1024 30.24 853 25.19 26.4 79.4 25 5.2 41.4 26.53 1.044
16:49 1024 30.24 853 25.19 26.2 79.1 28 6.4 43.5 26.28 1.035
16:50 1024 30.24 853 25.19 26.1 78.9 27 5.8 42.5 26.27 1.034
16:51 1024 30.24 853 25.19 26.1 79 27 5.8 42.5 26.35 1.037
16:52 1024 30.24 853 25.19 26.1 79.1 25 5.1 41.2 26.44 1.041
16:53 1024 30.24 853 25.19 26.2 79.2 25 5.1 41.1 26.44 1.041
16:54 1024 30.24 853 25.19 26.2 79.2 28 6.5 43.7 26.41 1.04
16:55 1024 30.24 853 25.19 26.2 79.1 25 5 41 26.42 1.04
16:56 1024 30.24 853 25.19 26.2 79.1 29 7.1 44.8 26.43 1.041
16:57 1024 30.24 853 25.19 26.3 79.3 26 5.5 41.9 26.47 1.042
16:58 1024 30.24 853 25.19 26.3 79.3 28 6.7 44.1 26.5 1.043
16:59 1024 30.24 853 25.19 26.3 79.4 28 6.5 43.7 26.67 1.05
17:00 1024 30.24 853 25.19 26.5 79.6 26 5.8 42.4 26.78 1.054
17:01 1024 30.24 853 25.19 26.6 79.8 25 5.5 41.8 26.85 1.057
17:02 1024 30.24 853 25.19 26.5 79.8 27 6 42.9 26.8 1.055
17:03 1024 30.24 853 25.19 26.5 79.7 29 7.1 44.8 26.66 1.05
17:04 1024 30.24 853 25.19 26.4 79.6 28 6.7 44 26.71 1.052
17:05 1024 30.24 853 25.19 26.5 79.6 26 5.7 42.3 26.69 1.051
17:06 1024 30.24 853 25.19 26.4 79.4 27 5.9 42.6 26.54 1.045
17:07 1024 30.24 853 25.19 26.3 79.3 25 5.1 41.2 26.53 1.044
17:08 1024 30.24 853 25.19 26.4 79.4 24 4.7 40.4 26.68 1.05
17:09 1023 30.21 853 25.19 26.6 79.8 24 4.8 40.6 26.9 1.059
17:10 1024 30.24 853 25.19 26.7 80.1 24 4.6 40.3 26.9 1.059
17:11 1023 30.21 853 25.19 26.7 80.1 25 5.2 41.3 26.89 1.059
17:12 1024 30.24 853 25.19 26.8 80.3 25 5.4 41.8 27.04 1.065
17:13 1023 30.21 853 25.19 26.9 80.4 26 5.9 42.6 27.07 1.066
17:14 1024 30.24 853 25.19 26.8 80.3 23 4.5 40.1 27.02 1.064
17:15 1023 30.21 853 25.19 26.9 80.3 24 4.7 40.5 27.07 1.066
17:16 1023 30.21 853 25.19 26.9 80.4 24 4.8 40.7 27.2 1.071
17:17 1023 30.21 853 25.19 26.8 80.3 24 4.7 40.5 27.22 1.072
17:18 1023 30.21 853 25.19 26.9 80.3 25 5.2 41.4 27.26 1.073
17:19 1023 30.21 853 25.19 27 80.5 25 5.6 42 27.2 1.071
17:20 1023 30.21 853 25.19 27.1 80.7 24 4.9 40.8 27.3 1.075
17:21 1023 30.21 853 25.19 27.1 80.7 24 4.9 40.9 27.37 1.078
17:22 1023 30.21 853 25.19 27.1 80.7 24 5.3 41.5 27.39 1.078
17:23 1023 30.21 853 25.19 27.1 80.7 23 4.6 40.2 27.26 1.073
17:24 1023 30.21 853 25.19 27 80.5 26 6.1 42.9 27.04 1.065
17:25 1023 30.21 853 25.19 26.8 80.3 26 6 42.9 26.99 1.063
17:26 1023 30.21 853 25.19 26.8 80.2 27 6.3 43.3 26.94 1.061
17:27 1023 30.21 853 25.19 26.7 80 27 6.6 43.9 26.86 1.057
17:28 1023 30.21 853 25.19 26.7 80 24 4.9 40.8 26.81 1.056
17:29 1023 30.21 853 25.19 26.6 79.9 27 6.6 43.8 26.81 1.056
17:30 1023 30.21 853 25.19 26.7 80.1 25 5.5 41.8 26.9 1.059
17:31 1023 30.21 853 25.19 26.8 80.2 28 6.9 44.4 27 1.063
17:32 1023 30.21 853 25.19 26.9 80.5 28 7.1 44.8 27.12 1.068
17:33 1023 30.21 853 25.19 27 80.6 27 6.9 44.5 27.29 1.074
17:34 1023 30.21 852 25.16 27.2 80.9 26 6.2 43.2 27.41 1.079
17:35 1023 30.21 853 25.19 27.2 81 24 5.5 41.9 27.39 1.078
17:36 1023 30.21 853 25.19 27.2 81 24 5.1 41.2 27.41 1.079
17:37 1023 30.21 852 25.16 27.2 80.9 27 6.8 44.2 27.28 1.074
17:38 1023 30.21 853 25.19 27.2 80.9 23 4.8 40.7 27.29 1.074
17:39 1023 30.21 852 25.16 27.2 81 25 5.8 42.4 27.33 1.076
17:40 1023 30.21 852 25.16 27.3 81.2 25 5.6 42 27.33 1.076
17:41 1023 30.21 852 25.16 27.3 81.2 23 4.4 39.9 27.33 1.076
17:42 1023 30.21 852 25.16 27.3 81.2 23 5 40.9 27.23 1.072
17:43 1023 30.21 852 25.16 27.3 81.2 24 5.3 41.5 27.4 1.079
17:44 1023 30.21 852 25.16 27.3 81.2 23 4.9 40.9 27.39 1.078
17:45 1023 30.21 852 25.16 27.2 81 25 6 42.8 27.34 1.076
17:46 1023 30.21 852 25.16 27.3 81.1 25 5.9 42.7 27.41 1.079
17:47 1023 30.21 852 25.16 27.3 81.2 24 5.2 41.4 27.41 1.079
17:48 1023 30.21 852 25.16 27.4 81.4 23 4.9 40.8 27.39 1.078
17:49 1023 30.21 852 25.16 27.5 81.5 24 5.4 41.8 27.43 1.08
17:50 1023 30.21 852 25.16 27.5 81.4 24 5.4 41.8 27.28 1.074
17:51 1023 30.21 852 25.16 27.4 81.2 25 5.7 42.2 27.23 1.072
17:52 1023 30.21 852 25.16 27.3 81.1 26 6.3 43.4 27.3 1.075
17:53 1023 30.21 852 25.16 27.3 81.1 24 5.1 41.2 27.29 1.074
17:54 1023 30.21 852 25.16 27.2 81 27 6.9 44.4 27.25 1.073
17:55 1023 30.21 852 25.16 27.2 81 25 6 42.8 27.28 1.074
17:56 1023 30.21 852 25.16 27.1 80.9 23 4.6 40.2 27.17 1.07
17:57 1023 30.21 852 25.16 27 80.7 24 5 41 27.09 1.067
17:58 1023 30.21 852 25.16 27.1 80.7 24 5 41 27.15 1.069
17:59 1023 30.21 852 25.16 27.1 80.8 28 7.1 44.8 27.19 1.07
18:00 1023 30.21 852 25.16 27.1 80.7 25 5.9 42.7 27.19 1.07
18:01 1023 30.21 852 25.16 27.1 80.7 29 7.7 45.9 27.24 1.072
18:02 1023 30.21 852 25.16 27.2 80.9 22 4 39.2 27.3 1.075
18:03 1023 30.21 852 25.16 27.1 80.8 27 6.6 43.9 27.27 1.074
18:04 1023 30.21 852 25.16 27.2 81 25 5.7 42.2 27.45 1.081
18:05 1023 30.21 852 25.16 27.2 80.9 22 3.8 38.9 27.43 1.08
18:06 1023 30.21 852 25.16 27.1 80.7 24 5.3 41.5 27.38 1.078
18:07 1023 30.21 852 25.16 27.1 80.7 24 5 41 27.38 1.078
18:08 1023 30.21 852 25.16 27.1 80.9 28 7.2 45 27.37 1.078
18:09 1023 30.21 852 25.16 27.3 81.1 25 5.8 42.4 27.44 1.08
18:10 1023 30.21 852 25.16 27.3 81.2 22 4.3 39.8 27.39 1.078
18:11 1023 30.21 852 25.16 27.2 80.9 25 5.9 42.6 27.25 1.073
18:12 1023 30.21 852 25.16 27.1 80.7 25 5.6 42 27.13 1.068
18:13 1023 30.21 852 25.16 27 80.6 23 4.1 39.4 27.16 1.069
18:14 1023 30.21 852 25.16 27 80.5 24 4.8 40.6 27.08 1.066
18:15 1023 30.21 852 25.16 27 80.5 23 4.6 40.2 27.15 1.069
18:16 1023 30.21 852 25.16 27 80.6 24 5 41 27.17 1.07
18:17 1023 30.21 852 25.16 27 80.6 26 6 42.8 27.16 1.069
18:18 1023 30.21 852 25.16 27 80.7 23 4.3 39.7 27.17 1.07
18:19 1023 30.21 852 25.16 27 80.6 22 3.9 39 27.21 1.071
18:20 1023 30.21 852 25.16 27.1 80.7 24 4.9 40.7 27.39 1.078
18:21 1023 30.21 852 25.16 27.2 81 23 4.7 40.4 27.6 1.087
18:22 1023 30.21 852 25.16 27.4 81.4 25 6 42.9 27.82 1.095
18:23 1023 30.21 852 25.16 27.7 81.9 22 4.2 39.6 27.98 1.102
18:24 1023 30.21 852 25.16 27.9 82.2 22 4.7 40.5 28.05 1.104
18:25 1023 30.21 852 25.16 28.1 82.5 24 5.8 42.4 28.17 1.109
18:26 1023 30.21 852 25.16 28.2 82.7 24 6.2 43.2 28.31 1.115
18:27 1023 30.21 852 25.16 28.3 82.9 27 7.7 45.9 28.46 1.12
18:28 1023 30.21 852 25.16 28.1 82.6 23 5.5 42 28.44 1.12
18:29 1023 30.21 852 25.16 28 82.4 23 5.5 41.8 28.43 1.119
18:30 1023 30.21 852 25.16 28 82.4 22 4.9 40.9 28.42 1.119
18:31 1023 30.21 852 25.16 28 82.5 22 4.9 40.8 28.45 1.12
18:32 1023 30.21 852 25.16 28.1 82.5 22 4.6 40.3 28.53 1.123
18:33 1023 30.21 852 25.16 28 82.5 24 5.9 42.6 28.45 1.12
18:34 1023 30.21 852 25.16 27.9 82.1 23 5.4 41.7 28.18 1.109
18:35 1023 30.21 852 25.16 27.7 81.8 24 5.5 41.9 27.92 1.099
18:36 1023 30.21 852 25.16 27.6 81.6 24 5.3 41.5 27.71 1.091
18:37 1023 30.21 852 25.16 27.4 81.3 22 3.9 39 27.52 1.083
18:38 1023 30.21 852 25.16 27.2 81 25 5.9 42.6 27.5 1.083
18:39 1023 30.21 852 25.16 27.2 80.9 22 4.2 39.6 27.43 1.08
18:40 1023 30.21 852 25.16 27.2 80.9 24 5.2 41.4 27.44 1.08
18:41 1023 30.21 852 25.16 27.2 80.9 24 4.9 40.9 27.5 1.083
18:42 1023 30.21 852 25.16 27.3 81.1 24 5.2 41.3 27.49 1.082
18:43 1023 30.21 852 25.16 27.3 81.1 22 3.8 38.9 27.38 1.078
18:44 1023 30.21 852 25.16 27.2 81 22 3.8 38.9 27.33 1.076
18:45 1023 30.21 852 25.16 27.2 80.9 25 5.7 42.3 27.3 1.075
18:46 1023 30.21 852 25.16 27.2 80.9 24 4.9 40.8 27.37 1.078
18:47 1023 30.21 852 25.16 27.2 80.9 22 3.9 39.1 27.3 1.075
18:48 1023 30.21 852 25.16 27 80.7 23 4.1 39.5 27.18 1.07
18:49 1023 30.21 852 25.16 27 80.5 21 3.4 38.1 27.12 1.068
18:50 1023 30.21 852 25.16 26.9 80.4 25 5.5 41.9 27.12 1.068
18:51 1023 30.21 852 25.16 27 80.6 22 3.5 38.4 27.2 1.071
18:52 1023 30.21 852 25.16 27 80.7 22 3.7 38.7 27.26 1.073
18:53 1023 30.21 852 25.16 27.2 80.9 22 3.6 38.6 27.3 1.075
18:54 1023 30.21 852 25.16 27.3 81.1 24 5 41 27.41 1.079
18:55 1023 30.21 852 25.16 27.4 81.3 25 5.7 42.2 27.54 1.084
18:56 1023 30.21 852 25.16 27.4 81.3 25 6 42.9 27.65 1.089
18:57 1023 30.21 852 25.16 27.4 81.3 23 4.5 40.1 27.68 1.09
18:58 1023 30.21 852 25.16 27.4 81.2 27 7.1 44.7 27.69 1.09
18:59 1023 30.21 852 25.16 27.4 81.2 25 6.2 43.1 27.71 1.091
19:00 1023 30.21 852 25.16 27.3 81.2 23 4.5 40.1 27.63 1.088
19:01 1023 30.21 852 25.16 27.3 81.1 26 6.3 43.3 27.62 1.087
19:02 1023 30.21 852 25.16 27.3 81.2 24 5.1 41.2 27.7 1.091
19:03 1023 30.21 852 25.16 27.4 81.3 23 4.5 40.1 27.65 1.089
19:04 1023 30.21 852 25.16 27.4 81.3 24 5.2 41.3 27.72 1.091
19:05 1023 30.21 852 25.16 27.3 81.2 23 4.6 40.3 27.65 1.089
19:06 1023 30.21 852 25.16 27.3 81.1 26 6.6 43.8 27.66 1.089
19:07 1023 30.21 852 25.16 27.3 81.1 28 7.3 45.1 27.66 1.089
19:08 1023 30.21 852 25.16 27.3 81.1 28 7.3 45.1 27.64 1.088
19:09 1023 30.21 852 25.16 27.3 81.2 26 6.2 43.1 27.6 1.087
19:10 1023 30.21 852 25.16 27.4 81.2 25 6.2 43.1 27.6 1.087
19:11 1023 30.21 852 25.16 27.4 81.3 25 5.7 42.2 27.61 1.087
19:12 1023 30.21 852 25.16 27.5 81.5 23 4.5 40.1 27.68 1.09
19:13 1023 30.21 852 25.16 27.7 81.8 23 5.2 41.3 27.81 1.095
19:14 1023 30.21 852 25.16 27.7 81.9 24 5.4 41.8 27.91 1.099
19:15 1023 30.21 852 25.16 27.7 81.8 24 5.7 42.3 27.86 1.097
19:16 1023 30.21 852 25.16 27.6 81.7 27 7.4 45.3 27.86 1.097
19:17 1023 30.21 852 25.16 27.5 81.5 23 5 40.9 27.76 1.093
19:18 1023 30.21 852 25.16 27.5 81.5 23 5 40.9 27.65 1.089
19:19 1023 30.21 852 25.16 27.5 81.4 22 4 39.2 27.5 1.083
19:20 1023 30.21 852 25.16 27.4 81.3 22 3.9 39 27.43 1.08
19:21 1023 30.21 852 25.16 27.3 81.2 22 4 39.2 27.37 1.078
19:22 1023 30.21 852 25.16 27.3 81.1 23 4.9 40.9 27.34 1.076
19:23 1023 30.21 852 25.16 27.3 81.2 23 4.8 40.6 27.43 1.08
19:24 1023 30.21 852 25.16 27.4 81.3 21 3.7 38.6 27.45 1.081
19:25 1023 30.21 852 25.16 27.4 81.3 22 4.1 39.5 27.38 1.078
19:26 1023 30.21 852 25.16 27.4 81.3 23 4.6 40.4 27.42 1.08
19:27 1023 30.21 852 25.16 27.3 81.2 24 5.1 41.3 27.34 1.076
19:28 1023 30.21 852 25.16 27.2 81 23 4.8 40.7 27.26 1.073
19:29 1023 30.21 852 25.16 27.1 80.8 22 3.9 39.1 27.11 1.067
19:30 1023 30.21 852 25.16 27 80.6 25 5.4 41.8 27.07 1.066
19:31 1023 30.21 852 25.16 26.9 80.3 24 5.1 41.1 26.95 1.061
19:32 1023 30.21 852 25.16 26.8 80.2 22 3.6 38.5 26.95 1.061
19:33 1023 30.21 852 25.16 26.9 80.4 22 3.7 38.7 27.01 1.063
19:34 1023 30.21 852 25.16 27 80.6 22 3.5 38.4 27.16 1.069
19:35 1023 30.21 852 25.16 27.2 80.9 22 3.6 38.5 27.29 1.074
19:36 1023 30.21 852 25.16 27.4 81.3 22 4.2 39.6 27.52 1.083
19:37 1023 30.21 852 25.16 27.6 81.6 24 5.7 42.2 27.61 1.087
19:38 1023 30.21 852 25.16 27.5 81.6 22 4.3 39.7 27.52 1.083
19:39 1023 30.21 852 25.16 27.4 81.3 22 4.3 39.8 27.46 1.081
19:40 1023 30.21 852 25.16 27.4 81.2 24 5.3 41.6 27.38 1.078
19:41 1023 30.21 852 25.16 27.3 81.1 29 7.8 46 27.31 1.075
19:42 1023 30.21 852 25.16 27.1 80.8 25 5.8 42.5 27.18 1.07
19:43 1023 30.21 852 25.16 26.9 80.5 23 4.5 40.2 27.01 1.063
19:44 1023 30.21 852 25.16 26.8 80.2 25 5.5 41.9 26.86 1.057
19:45 1023 30.21 852 25.16 26.7 80 26 5.6 42.2 26.8 1.055
19:46 1023 30.21 852 25.16 26.7 80 26 6.1 43 26.79 1.055
19:47 1023 30.21 852 25.16 26.6 79.9 23 4.3 39.7 26.77 1.054
19:48 1023 30.21 852 25.16 26.6 79.9 22 3.5 38.2 26.76 1.054
19:49 1023 30.21 852 25.16 26.7 80 23 4.3 39.7 26.84 1.057
19:50 1023 30.21 852 25.16 26.8 80.2 24 4.6 40.2 26.84 1.057
19:51 1023 30.21 852 25.16 26.8 80.2 26 5.9 42.6 26.9 1.059
19:52 1023 30.21 852 25.16 26.8 80.3 27 6.4 43.5 27.01 1.063
19:53 1023 30.21 852 25.16 26.8 80.2 22 3.9 39 26.94 1.061
19:54 1023 30.21 852 25.16 26.7 80.1 22 3.5 38.4 26.88 1.058
19:55 1023 30.21 852 25.16 26.7 80.1 24 4.7 40.5 26.88 1.058
19:56 1023 30.21 852 25.16 26.7 80.1 22 3.4 38.1 26.89 1.059
19:57 1023 30.21 852 25.16 26.7 80.1 26 5.7 42.3 27.02 1.064
19:58 1023 30.21 852 25.16 26.6 79.9 24 4.7 40.4 27.03 1.064
19:59 1023 30.21 852 25.16 26.5 79.8 25 5.4 41.8 27.05 1.065
20:00 1023 30.21 852 25.16 26.4 79.6 27 6.1 43 26.98 1.062
20:01 1023 30.21 852 25.16 26.3 79.4 26 5.8 42.4 26.91 1.059
20:02 1023 30.21 852 25.16 26.2 79.2 28 6.3 43.3 26.86 1.057
20:03 1023 30.21 852 25.16 26.1 78.9 25 4.7 40.5 26.82 1.056
20:04 1023 30.21 852 25.16 26 78.8 27 6 42.8 26.71 1.052
20:05 1023 30.21 852 25.16 25.9 78.6 33 8.7 47.7 26.58 1.046
20:06 1023 30.21 852 25.16 25.6 78.1 38 10.7 51.2 26.29 1.035
20:07 1023 30.21 852 25.16 25.3 77.6 38 10.1 50.1 25.96 1.022
20:08 1023 30.21 852 25.16 25.1 77.1 41 11.1 52.1 25.59 1.007
20:09 1023 30.21 852 25.16 24.9 76.7 42 11.4 52.6 25.4 1
20:10 1023 30.21 852 25.16 24.7 76.4 44 11.9 53.5 25.27 0.995
20:11 1023 30.21 852 25.16 24.5 76.2 46 12.2 53.9 25.17 0.991
20:12 1023 30.21 852 25.16 24.3 75.8 46 12.2 54 24.94 0.982
20:13 1023 30.21 852 25.16 24.1 75.4 48 12.5 54.5 24.74 0.974
20:14 1023 30.21 852 25.16 24 75.1 46 11.7 53.1 24.51 0.965
20:15 1023 30.21 852 25.16 23.9 74.9 48 12.4 54.3 24.29 0.956
20:16 1023 30.21 852 25.16 23.7 74.7 49 12.7 54.8 24.22 0.954
20:17 1022 30.18 852 25.16 23.5 74.4 44 10.7 51.3 24.01 0.945
20:18 1022 30.18 852 25.16 23.5 74.2 41 9.7 49.5 23.89 0.941
20:19 1022 30.18 852 25.16 23.6 74.4 44 10.9 51.7 23.99 0.944
20:20 1022 30.18 852 25.16 23.5 74.2 47 11.7 53.1 23.9 0.941
20:21 1022 30.18 852 25.16 23.2 73.8 46 11 51.8 23.77 0.936
20:22 1022 30.18 852 25.16 23 73.4 47 11.4 52.5 23.55 0.927
20:23 1022 30.18 852 25.16 22.8 73.1 48 11.3 52.4 23.34 0.919
20:24 1022 30.18 852 25.16 22.6 72.8 48 11.2 52.2 23.12 0.91
20:25 1022 30.18 852 25.16 22.5 72.5 49 11.4 52.5 22.91 0.902
20:26 1022 30.18 852 25.16 22.4 72.3 48 11.2 52.1 22.8 0.898
20:27 1022 30.18 852 25.16 22.3 72.1 50 11.6 52.8 22.71 0.894
20:28 1023 30.21 852 25.16 22.1 71.7 51 11.8 53.2 22.53 0.887
20:29 1022 30.18 852 25.16 21.9 71.4 50 11 51.8 22.34 0.88
20:30 1022 30.18 852 25.16 21.9 71.4 50 11.1 52 22.25 0.876
20:31 1022 30.18 852 25.16 21.9 71.4 50 11.2 52.2 22.22 0.875
20:32 1023 30.21 852 25.16 21.8 71.3 51 11.4 52.5 22.11 0.87
20:33 1022 30.18 852 25.16 21.7 71.1 52 11.7 53 22 0.866
20:34 1022 30.18 852 25.16 21.5 70.8 51 11.2 52.2 21.84 0.86
20:35 1022 30.18 852 25.16 21.4 70.5 54 11.7 53.1 21.72 0.855
20:36 1022 30.18 852 25.16 21.2 70.2 54 11.8 53.2 21.52 0.847
20:37 1022 30.18 852 25.16 20.9 69.7 54 11.4 52.4 21.34 0.84
20:38 1022 30.18 852 25.16 20.8 69.5 53 10.9 51.7 21.19 0.834
20:39 1023 30.21 852 25.16 20.7 69.3 54 11.3 52.3 21.01 0.827
20:40 1022 30.18 852 25.16 20.5 68.9 54 10.9 51.7 20.82 0.82
20:41 1023 30.21 852 25.16 20.3 68.5 55 11.2 52.1 20.57 0.81
20:42 1022 30.18 852 25.16 20 68 57 11.3 52.3 20.3 0.799
20:43 1022 30.18 852 25.16 19.7 67.4 58 11.4 52.5 19.98 0.787
20:44 1023 30.21 852 25.16 19.4 67 59 11.4 52.5 19.66 0.774
20:45 1023 30.21 852 25.16 19.2 66.6 59 11.1 51.9 19.54 0.769
20:46 1023 30.21 852 25.16 19.1 66.4 59 10.9 51.7 19.41 0.764
20:47 1023 30.21 852 25.16 19 66.2 58 10.6 51.1 19.25 0.758
20:48 1023 30.21 852 25.16 18.9 65.9 57 10.2 50.4 19.14 0.754
20:49 1023 30.21 852 25.16 18.8 65.9 56 10.1 50.2 19.05 0.75
20:50 1023 30.21 852 25.16 18.7 65.6 56 9.8 49.7 18.91 0.744
20:51 1023 30.21 852 25.16 18.5 65.3 57 10 50.1 18.75 0.738
20:52 1023 30.21 852 25.16 18.3 65 59 10.3 50.5 18.64 0.734
20:53 1023 30.21 852 25.16 18.2 64.8 61 10.5 51 18.47 0.727
20:54 1023 30.21 852 25.16 18 64.4 62 10.7 51.2 18.34 0.722
20:55 1023 30.21 852 25.16 17.8 64 64 10.9 51.5 18.14 0.714
20:56 1023 30.21 852 25.16 17.6 63.6 65 10.9 51.6 17.92 0.706
20:57 1023 30.21 852 25.16 17.4 63.4 65 10.8 51.4 17.75 0.699
20:58 1023 30.21 852 25.16 17.3 63.2 65 10.7 51.3 17.63 0.694
20:59 1023 30.21 852 25.16 17.3 63.1 64 10.5 51 17.6 0.693
21:00 1023 30.21 852 25.16 17.4 63.3 64 10.5 50.9 17.62 0.694
21:01 1023 30.21 852 25.16 17.4 63.3 64 10.5 50.9 17.7 0.697
21:02 1023 30.21 852 25.16 17.4 63.3 64 10.5 51 17.71 0.697
21:03 1023 30.21 852 25.16 17.4 63.3 64 10.6 51 17.68 0.696
21:04 1023 30.21 852 25.16 17.3 63.1 64 10.5 51 17.59 0.693
21:05 1023 30.21 852 25.16 17.2 62.9 65 10.5 50.9 17.52 0.69
21:06 1023 30.21 852 25.16 17 62.5 66 10.6 51.1 17.3 0.681
21:07 1023 30.21 852 25.16 16.6 61.9 67 10.7 51.2 16.97 0.668
21:08 1023 30.21 852 25.16 16.3 61.4 69 10.6 51.2 16.68 0.657
21:09 1023 30.21 852 25.16 16.2 61.2 69 10.6 51 16.55 0.652
21:10 1023 30.21 852 25.16 16.1 61 70 10.7 51.2 16.45 0.648
21:11 1023 30.21 852 25.16 16 60.8 72 11 51.8 16.4 0.646
21:12 1023 30.21 852 25.16 16 60.7 72 11 51.8 16.32 0.643
21:13 1023 30.21 852 25.16 15.9 60.6 72 11 51.8 16.22 0.639
21:14 1023 30.21 852 25.16 15.8 60.4 73 10.9 51.6 16.13 0.635
21:15 1023 30.21 852 25.16 15.6 60.1 72 10.7 51.3 15.98 0.629
21:16 1023 30.21 852 25.16 15.5 59.9 72 10.5 50.9 15.83 0.623
21:17 1023 30.21 852 25.16 15.4 59.7 71 10.3 50.5 15.65 0.616
21:18 1023 30.21 852 25.16 15.3 59.5 70 9.9 49.9 15.58 0.613
21:19 1023 30.21 852 25.16 15.2 59.4 70 9.8 49.7 15.53 0.611
21:20 1023 30.21 852 25.16 15.1 59.2 71 9.9 49.7 15.4 0.606
21:21 1023 30.21 852 25.16 14.9 58.8 70 9.5 49.1 15.28 0.602
21:22 1023 30.21 852 25.16 15 59 69 9.5 49.2 15.37 0.605
21:23 1023 30.21 852 25.16 15.1 59.1 71 9.8 49.6 15.37 0.605
21:24 1023 30.21 852 25.16 15 58.9 72 10 49.9 15.33 0.604
21:25 1023 30.21 852 25.16 14.9 58.8 72 9.9 49.9 15.26 0.601
21:26 1023 30.21 852 25.16 14.8 58.7 72 10 49.9 15.17 0.597
21:27 1023 30.21 852 25.16 14.8 58.6 73 9.9 49.9 15.22 0.599
21:28 1023 30.21 852 25.16 14.8 58.7 73 10.1 50.1 15.21 0.599
21:29 1023 30.21 852 25.16 14.7 58.5 74 10.1 50.3 15.09 0.594
21:30 1023 30.21 852 25.16 14.5 58.1 75 10.1 50.1 14.91 0.587
21:31 1023 30.21 852 25.16 14.4 57.8 75 10 50 14.72 0.58
21:32 1023 30.21 852 25.16 14.2 57.6 75 9.9 49.9 14.59 0.574
21:33 1023 30.21 852 25.16 14.1 57.4 76 10 49.9 14.49 0.57
21:34 1023 30.21 852 25.16 14 57.1 76 9.8 49.6 14.34 0.565
21:35 1023 30.21 852 25.16 14 57.1 75 9.7 49.5 14.39 0.567
21:36 1023 30.21 852 25.16 14 57.1 75 9.7 49.5 14.33 0.564
21:37 1023 30.21 852 25.16 13.9 57 76 9.7 49.5 14.25 0.561
21:38 1023 30.21 852 25.16 13.9 57 76 9.8 49.7 14.25 0.561
21:39 1023 30.21 852 25.16 13.8 56.9 76 9.6 49.3 14.22 0.56
21:40 1023 30.21 852 25.16 13.8 56.9 76 9.6 49.3 14.21 0.559
21:41 1023 30.21 852 25.16 13.8 56.8 75 9.5 49.1 14.13 0.556
21:42 1023 30.21 852 25.16 13.7 56.6 76 9.5 49.2 14.01 0.552
21:43 1023 30.21 852 25.16 13.6 56.4 76 9.5 49.1 13.97 0.55
21:44 1023 30.21 852 25.16 13.4 56.1 75 9.2 48.5 13.77 0.542
21:45 1023 30.21 852 25.16 13.4 56.1 73 8.7 47.7 13.73 0.541
21:46 1023 30.21 852 25.16 13.6 56.4 72 8.6 47.5 13.88 0.546
21:47 1023 30.21 852 25.16 13.6 56.5 72 8.7 47.7 13.94 0.549
21:48 1023 30.21 852 25.16 13.5 56.3 73 8.7 47.7 13.84 0.545
21:49 1023 30.21 852 25.16 13.4 56.1 73 8.6 47.4 13.76 0.542
21:50 1023 30.21 852 25.16 13.4 56 72 8.4 47.2 13.68 0.539
21:51 1023 30.21 852 25.16 13.5 56.2 71 8.3 46.9 13.78 0.543
21:52 1023 30.21 852 25.16 13.6 56.5 70 8.3 46.9 13.93 0.548
21:53 1023 30.21 852 25.16 13.7 56.6 69 8.2 46.7 13.97 0.55
21:54 1023 30.21 852 25.16 13.7 56.6 69 8.1 46.7 14.03 0.552
21:55 1023 30.21 852 25.16 13.7 56.7 69 8.1 46.5 14.05 0.553
21:56 1023 30.21 852 25.16 13.8 56.8 68 7.9 46.3 14.08 0.554
21:57 1023 30.21 852 25.16 13.9 56.9 68 8.1 46.5 14.17 0.558
21:58 1023 30.21 852 25.16 13.9 56.9 67 8 46.4 14.17 0.558
21:59 1023 30.21 852 25.16 13.9 57.1 66 7.8 46 14.21 0.559
22:00 1023 30.21 852 25.16 14 57.2 66 7.9 46.2 14.31 0.563
22:01 1023 30.21 852 25.16 14 57.1 66 7.8 46.1 14.24 0.561
22:02 1023 30.21 852 25.16 13.9 57.1 67 7.9 46.2 14.24 0.561
22:03 1023 30.21 852 25.16 13.8 56.8 67 7.8 46 14.1 0.555
22:04 1023 30.21 852 25.16 13.7 56.7 67 7.7 45.9 14.06 0.554
22:05 1023 30.21 852 25.16 13.7 56.6 67 7.6 45.7 14.06 0.554
22:06 1023 30.21 852 25.16 13.8 56.8 66 7.6 45.6 14.08 0.554
22:07 1023 30.21 852 25.16 13.9 56.9 65 7.5 45.5 14.16 0.557
22:08 1023 30.21 852 25.16 13.9 57 65 7.5 45.5 14.22 0.56
22:09 1023 30.21 852 25.16 14 57.1 65 7.5 45.5 14.3 0.563
22:10 1023 30.21 852 25.16 14 57.3 65 7.5 45.6 14.33 0.564
22:11 1023 30.21 852 25.16 14 57.2 64 7.4 45.4 14.37 0.566
22:12 1023 30.21 852 25.16 14 57.2 65 7.5 45.5 14.33 0.564
22:13 1023 30.21 852 25.16 14 57.1 64 7.4 45.3 14.32 0.564
22:14 1023 30.21 852 25.16 14 57.1 64 7.3 45.2 14.32 0.564
22:15 1023 30.21 852 25.16 14 57.2 64 7.3 45.1 14.33 0.564
22:16 1023 30.21 852 25.16 14 57.3 64 7.3 45.2 14.32 0.564
22:17 1023 30.21 852 25.16 14 57.2 64 7.3 45.2 14.31 0.563
22:18 1023 30.21 852 25.16 14 57.2 64 7.3 45.1 14.33 0.564
22:19 1023 30.21 852 25.16 14 57.3 63 7.2 44.9 14.38 0.566
22:20 1023 30.21 852 25.16 14.1 57.3 63 7.1 44.8 14.4 0.567
22:21 1023 30.21 852 25.16 14.2 57.6 62 7.1 44.7 14.49 0.57
22:22 1023 30.21 852 25.16 14.3 57.7 63 7.4 45.2 14.52 0.572
22:23 1023 30.21 852 25.16 14 57.2 64 7.3 45.1 14.42 0.568
22:24 1023 30.21 852 25.16 13.8 56.8 65 7.3 45.1 14.19 0.559
22:25 1023 30.21 852 25.16 13.6 56.4 65 7.1 44.8 14 0.551
22:26 1023 30.21 852 25.16 13.4 56.2 64 6.9 44.4 13.86 0.546
22:27 1023 30.21 852 25.16 13.4 56.2 64 6.7 44.1 13.79 0.543
22:28 1023 30.21 852 25.16 13.5 56.3 63 6.6 43.9 13.83 0.544
22:29 1023 30.21 852 25.16 13.6 56.5 62 6.6 43.9 13.92 0.548
22:30 1023 30.21 852 25.16 13.7 56.7 62 6.6 43.9 13.99 0.551
22:31 1023 30.21 852 25.16 13.8 56.8 63 6.9 44.3 13.99 0.551
22:32 1023 30.21 852 25.16 13.7 56.7 64 7.1 44.8 14.02 0.552
22:33 1023 30.21 852 25.16 13.6 56.4 65 7.1 44.8 13.9 0.547
22:34 1023 30.21 852 25.16 13.4 56 66 7.1 44.8 13.71 0.54
22:35 1023 30.21 852 25.16 13.1 55.5 67 7.2 44.9 13.47 0.53
22:36 1023 30.21 852 25.16 12.9 55.2 68 7.1 44.8 13.33 0.525
22:37 1023 30.21 852 25.16 12.8 55.1 68 7.2 45 13.25 0.522
22:38 1023 30.21 852 25.16 12.8 55 68 7.1 44.8 13.14 0.517
22:39 1023 30.21 852 25.16 12.8 55 68 7.1 44.8 13.2 0.52
22:40 1023 30.21 852 25.16 12.9 55.2 68 7.1 44.8 13.21 0.52
22:41 1023 30.21 852 25.16 12.9 55.3 68 7.2 45 13.24 0.521
22:42 1023 30.21 852 25.16 13 55.5 68 7.2 45 13.35 0.526
22:43 1023 30.21 852 25.16 13.1 55.5 67 7.2 45 13.39 0.527
22:44 1023 30.21 852 25.16 13.1 55.6 66 6.9 44.4 13.43 0.529
22:45 1023 30.21 852 25.16 13.3 55.9 65 6.9 44.3 13.57 0.534
22:46 1023 30.21 852 25.16 13.5 56.2 64 6.9 44.5 13.72 0.54
22:47 1023 30.21 852 25.16 13.6 56.4 63 6.8 44.2 13.87 0.546
22:48 1023 30.21 852 25.16 13.7 56.6 63 6.9 44.4 13.96 0.55
22:49 1023 30.21 852 25.16 13.8 56.8 63 6.9 44.3 14.03 0.552
22:50 1023 30.21 852 25.16 13.9 57 63 7 44.7 14.13 0.556
22:51 1023 30.21 852 25.16 13.8 56.9 64 7.2 45 14.06 0.554
22:52 1023 30.21 852 25.16 13.7 56.6 65 7.2 45 13.95 0.549
22:53 1023 30.21 852 25.16 13.6 56.4 65 7.1 44.7 13.87 0.546
22:54 1023 30.21 852 25.16 13.5 56.4 65 7.1 44.7 13.83 0.544
22:55 1023 30.21 852 25.16 13.5 56.3 65 7.1 44.8 13.83 0.544
22:56 1023 30.21 852 25.16 13.5 56.3 65 7.1 44.7 13.79 0.543
22:57 1023 30.21 852 25.16 13.4 56.1 65 7 44.7 13.71 0.54
22:58 1023 30.21 852 25.16 13.3 55.9 65 6.8 44.3 13.59 0.535
22:59 1023 30.21 852 25.16 13.3 56 64 6.7 44.1 13.63 0.537
23:00 1023 30.21 852 25.16 13.4 56.1 64 6.8 44.2 13.66 0.538
23:01 1023 30.21 852 25.16 13.4 56 64 6.8 44.3 13.65 0.537
23:02 1023 30.21 852 25.16 13.4 56 64 6.7 44 13.6 0.535
23:03 1023 30.21 852 25.16 13.4 56.1 62 6.3 43.4 13.67 0.538
23:04 1023 30.21 852 25.16 13.6 56.4 62 6.6 43.8 13.75 0.541
23:05 1023 30.21 853 25.19 13.5 56.4 63 6.6 43.9 13.76 0.542
23:06 1023 30.21 853 25.19 13.5 56.3 62 6.4 43.6 13.72 0.54
23:07 1023 30.21 852 25.16 13.6 56.5 60 6.1 42.9 13.85 0.545
23:08 1023 30.21 852 25.16 13.9 57 59 6.1 43 14.16 0.557
23:09 1023 30.21 852 25.16 14.2 57.5 58 6.1 43 14.4 0.567
23:10 1023 30.21 852 25.16 14.3 57.8 58 6.3 43.4 14.51 0.571
23:11 1023 30.21 852 25.16 14.3 57.7 59 6.4 43.6 14.5 0.571
23:12 1023 30.21 852 25.16 14.2 57.5 59 6.4 43.6 14.42 0.568
23:13 1023 30.21 852 25.16 14 57.2 60 6.5 43.7 14.3 0.563
23:14 1023 30.21 853 25.19 13.9 57 61 6.5 43.6 14.15 0.557
23:15 1023 30.21 853 25.19 13.8 56.8 61 6.4 43.5 14.05 0.553
23:16 1023 30.21 853 25.19 13.6 56.5 61 6.3 43.4 13.95 0.549
23:17 1023 30.21 853 25.19 13.5 56.4 62 6.5 43.7 13.85 0.545
23:18 1023 30.21 853 25.19 13.4 56 63 6.5 43.6 13.73 0.541
23:19 1023 30.21 852 25.16 13.2 55.8 63 6.3 43.3 13.57 0.534
23:20 1023 30.21 853 25.19 13.1 55.6 63 6.4 43.4 13.49 0.531
23:21 1023 30.21 852 25.16 13 55.4 63 6.2 43.1 13.44 0.529
23:22 1023 30.21 853 25.19 13.1 55.5 63 6.1 43 13.39 0.527
23:23 1023 30.21 853 25.19 13.1 55.6 62 6.2 43.1 13.42 0.528
23:24 1023 30.21 853 25.19 13.2 55.7 62 6.1 43 13.54 0.533
23:25 1023 30.21 853 25.19 13.3 55.9 62 6.3 43.3 13.61 0.536
23:26 1023 30.21 853 25.19 13.2 55.7 63 6.3 43.3 13.53 0.533
23:27 1023 30.21 853 25.19 13.1 55.7 61 5.8 42.5 13.48 0.531
23:28 1023 30.21 853 25.19 13.3 55.9 60 5.8 42.4 13.76 0.542
23:29 1023 30.21 853 25.19 13.5 56.4 60 6 42.9 13.92 0.548
23:30 1023 30.21 853 25.19 13.5 56.4 60 6 42.8 13.87 0.546
23:31 1023 30.21 853 25.19 13.5 56.3 60 6.1 42.9 13.81 0.544
23:32 1023 30.21 853 25.19 13.4 56.2 61 6 42.8 13.72 0.54
23:33 1023 30.21 853 25.19 13.4 56.1 60 5.9 42.6 13.66 0.538
23:34 1023 30.21 853 25.19 13.4 56.2 60 5.9 42.6 13.7 0.539
23:35 1023 30.21 853 25.19 13.5 56.3 59 5.8 42.5 13.78 0.543
23:36 1023 30.21 853 25.19 13.7 56.7 59 5.9 42.6 13.95 0.549
23:37 1023 30.21 853 25.19 13.8 56.8 59 6 42.8 14.03 0.552
23:38 1023 30.21 853 25.19 13.8 56.9 58 5.8 42.4 14.07 0.554
23:39 1023 30.21 853 25.19 14 57.2 57 5.7 42.2 14.29 0.563
23:40 1023 30.21 853 25.19 14.2 57.6 56 5.6 42.1 14.49 0.57
23:41 1023 30.21 853 25.19 14.4 57.8 57 5.9 42.7 14.6 0.575
23:42 1023 30.21 853 25.19 14.2 57.5 58 6 42.8 14.5 0.571
23:43 1023 30.21 853 25.19 13.9 57.1 59 6.2 43.1 14.34 0.565
23:44 1023 30.21 853 25.19 13.6 56.4 59 5.7 42.2 14.01 0.552
23:45 1023 30.21 853 25.19 13.8 56.8 57 5.4 41.8 14.02 0.552
23:46 1023 30.21 853 25.19 14.2 57.6 54 5.2 41.4 14.47 0.57
23:47 1023 30.21 853 25.19 14.8 58.6 52 5.1 41.2 14.98 0.59
23:48 1023 30.21 853 25.19 15.2 59.4 51 5.2 41.4 15.48 0.609
23:49 1023 30.21 853 25.19 15.6 60.1 50 5.2 41.3 15.77 0.621
23:50 1023 30.21 853 25.19 15.9 60.7 49 5.3 41.5 16.07 0.633
23:51 1023 30.21 853 25.19 16 60.8 51 5.9 42.5 16.17 0.637
23:52 1023 30.21 853 25.19 15.6 60.1 52 5.9 42.6 15.85 0.624
23:53 1023 30.21 853 25.19 15.2 59.4 54 5.9 42.7 15.56 0.613
23:54 1023 30.21 853 25.19 14.9 58.7 54 5.7 42.3 15.31 0.603
23:55 1023 30.21 853 25.19 14.8 58.6 54 5.8 42.4 15.18 0.598
23:56 1023 30.21 853 25.19 14.7 58.5 55 5.9 42.7 15.09 0.594
23:57 1023 30.21 853 25.19 14.4 57.9 56 5.9 42.6 14.88 0.586
23:58 1023 30.21 853 25.19 14.3 57.7 55 5.4 41.8 14.78 0.582
23:59 1023 30.21 853 25.19 14.6 58.2 54 5.6 42 14.97 0.589
24:00 1023 30.21 853 25.19 14.7 58.4 54 5.6 42.1 14.99 0.59